<?xml version="1.0" encoding="UTF-8" standalone="no" ?>
<gpx xmlns="http://www.topografix.com/GPX/1/1" xmlns:xsi="http://www.w3.org/2001/XMLSchema-instance" xsi:schemaLocation="http://www.topografix.com/GPX/1/1 http://www.topografix.com/GPX/1/1/gpx.xsd" version="1.1" creator="VisuGPX - https://www.visugpx.com">
  <metadata>
    <name>20200722 - Sortie par Fontaine au bois</name>
  </metadata>
  <trk>
    <name><![CDATA[20200722 - Sortie par Fontaine au bois_1]]></name>
    <trkseg>
      <trkpt lat="50.12495" lon="3.67834">
        <ele>65</ele>
        <time>2020-07-22T14:42:31.000Z</time>
      </trkpt>
      <trkpt lat="50.1252" lon="3.67863">
        <ele>65</ele>
        <time>2020-07-22T14:42:40.000Z</time>
      </trkpt>
      <trkpt lat="50.12546" lon="3.67885">
        <ele>65</ele>
        <time>2020-07-22T14:42:48.000Z</time>
      </trkpt>
      <trkpt lat="50.12565" lon="3.67899">
        <ele>65</ele>
        <time>2020-07-22T14:42:54.000Z</time>
      </trkpt>
      <trkpt lat="50.1258" lon="3.67916">
        <ele>65</ele>
        <time>2020-07-22T14:42:59.000Z</time>
      </trkpt>
      <trkpt lat="50.12591" lon="3.67942">
        <ele>65.400001525879</ele>
        <time>2020-07-22T14:43:05.000Z</time>
      </trkpt>
      <trkpt lat="50.12592" lon="3.67946">
        <ele>65.800003051758</ele>
        <time>2020-07-22T14:43:06.000Z</time>
      </trkpt>
      <trkpt lat="50.12594" lon="3.6795">
        <ele>66.400001525879</ele>
        <time>2020-07-22T14:43:07.000Z</time>
      </trkpt>
      <trkpt lat="50.12598" lon="3.67954">
        <ele>66.800003051758</ele>
        <time>2020-07-22T14:43:08.000Z</time>
      </trkpt>
      <trkpt lat="50.126" lon="3.67958">
        <ele>67.199996948242</ele>
        <time>2020-07-22T14:43:09.000Z</time>
      </trkpt>
      <trkpt lat="50.12604" lon="3.67966">
        <ele>67.199996948242</ele>
        <time>2020-07-22T14:43:11.000Z</time>
      </trkpt>
      <trkpt lat="50.12615" lon="3.67995">
        <ele>67.199996948242</ele>
        <time>2020-07-22T14:43:17.000Z</time>
      </trkpt>
      <trkpt lat="50.12622" lon="3.6802">
        <ele>67.199996948242</ele>
        <time>2020-07-22T14:43:23.000Z</time>
      </trkpt>
      <trkpt lat="50.12623" lon="3.68026">
        <ele>67.199996948242</ele>
        <time>2020-07-22T14:43:24.000Z</time>
      </trkpt>
      <trkpt lat="50.12628" lon="3.68047">
        <ele>67.199996948242</ele>
        <time>2020-07-22T14:43:29.000Z</time>
      </trkpt>
      <trkpt lat="50.12649" lon="3.68064">
        <ele>67.199996948242</ele>
        <time>2020-07-22T14:43:33.000Z</time>
      </trkpt>
      <trkpt lat="50.12663" lon="3.68093">
        <ele>67.199996948242</ele>
        <time>2020-07-22T14:43:39.000Z</time>
      </trkpt>
      <trkpt lat="50.1268" lon="3.68126">
        <ele>67.199996948242</ele>
        <time>2020-07-22T14:43:46.000Z</time>
      </trkpt>
      <trkpt lat="50.12692" lon="3.68158">
        <ele>67.199996948242</ele>
        <time>2020-07-22T14:43:53.000Z</time>
      </trkpt>
      <trkpt lat="50.12714" lon="3.682">
        <ele>67.199996948242</ele>
        <time>2020-07-22T14:44:02.000Z</time>
      </trkpt>
      <trkpt lat="50.12727" lon="3.68229">
        <ele>67.199996948242</ele>
        <time>2020-07-22T14:44:08.000Z</time>
      </trkpt>
      <trkpt lat="50.12741" lon="3.68269">
        <ele>67.199996948242</ele>
        <time>2020-07-22T14:44:17.000Z</time>
      </trkpt>
      <trkpt lat="50.12752" lon="3.68303">
        <ele>67.199996948242</ele>
        <time>2020-07-22T14:44:24.000Z</time>
      </trkpt>
      <trkpt lat="50.12762" lon="3.68337">
        <ele>67.199996948242</ele>
        <time>2020-07-22T14:44:31.000Z</time>
      </trkpt>
      <trkpt lat="50.12779" lon="3.68387">
        <ele>67.199996948242</ele>
        <time>2020-07-22T14:44:41.000Z</time>
      </trkpt>
      <trkpt lat="50.12792" lon="3.68423">
        <ele>67.199996948242</ele>
        <time>2020-07-22T14:44:48.000Z</time>
      </trkpt>
      <trkpt lat="50.12802" lon="3.68447">
        <ele>67.199996948242</ele>
        <time>2020-07-22T14:44:54.000Z</time>
      </trkpt>
      <trkpt lat="50.12809" lon="3.68445">
        <ele>67.199996948242</ele>
        <time>2020-07-22T14:44:56.000Z</time>
      </trkpt>
      <trkpt lat="50.12812" lon="3.68443">
        <ele>67.199996948242</ele>
        <time>2020-07-22T14:44:57.000Z</time>
      </trkpt>
      <trkpt lat="50.12823" lon="3.68433">
        <ele>67.599998474121</ele>
        <time>2020-07-22T14:45:00.000Z</time>
      </trkpt>
      <trkpt lat="50.12826" lon="3.6843">
        <ele>68</ele>
        <time>2020-07-22T14:45:01.000Z</time>
      </trkpt>
      <trkpt lat="50.12829" lon="3.68427">
        <ele>68.400001525879</ele>
        <time>2020-07-22T14:45:02.000Z</time>
      </trkpt>
      <trkpt lat="50.12832" lon="3.68424">
        <ele>68.800003051758</ele>
        <time>2020-07-22T14:45:03.000Z</time>
      </trkpt>
      <trkpt lat="50.12835" lon="3.68421">
        <ele>69.199996948242</ele>
        <time>2020-07-22T14:45:04.000Z</time>
      </trkpt>
      <trkpt lat="50.12845" lon="3.68406">
        <ele>69.199996948242</ele>
        <time>2020-07-22T14:45:08.000Z</time>
      </trkpt>
      <trkpt lat="50.12856" lon="3.6839">
        <ele>69.199996948242</ele>
        <time>2020-07-22T14:45:13.000Z</time>
      </trkpt>
      <trkpt lat="50.1286" lon="3.68392">
        <ele>69.199996948242</ele>
        <time>2020-07-22T14:45:14.000Z</time>
      </trkpt>
      <trkpt lat="50.12867" lon="3.68399">
        <ele>69.599998474121</ele>
        <time>2020-07-22T14:45:16.000Z</time>
      </trkpt>
      <trkpt lat="50.12869" lon="3.68404">
        <ele>70.199996948242</ele>
        <time>2020-07-22T14:45:17.000Z</time>
      </trkpt>
      <trkpt lat="50.12871" lon="3.68407">
        <ele>70.599998474121</ele>
        <time>2020-07-22T14:45:18.000Z</time>
      </trkpt>
      <trkpt lat="50.12873" lon="3.68412">
        <ele>71</ele>
        <time>2020-07-22T14:45:19.000Z</time>
      </trkpt>
      <trkpt lat="50.12874" lon="3.68417">
        <ele>71.400001525879</ele>
        <time>2020-07-22T14:45:20.000Z</time>
      </trkpt>
      <trkpt lat="50.12883" lon="3.68439">
        <ele>71.400001525879</ele>
        <time>2020-07-22T14:45:26.000Z</time>
      </trkpt>
      <trkpt lat="50.12894" lon="3.6848">
        <ele>71.400001525879</ele>
        <time>2020-07-22T14:45:36.000Z</time>
      </trkpt>
      <trkpt lat="50.12902" lon="3.68509">
        <ele>71.400001525879</ele>
        <time>2020-07-22T14:45:43.000Z</time>
      </trkpt>
      <trkpt lat="50.12913" lon="3.68544">
        <ele>71.400001525879</ele>
        <time>2020-07-22T14:45:50.000Z</time>
      </trkpt>
      <trkpt lat="50.12926" lon="3.68584">
        <ele>71.400001525879</ele>
        <time>2020-07-22T14:45:57.000Z</time>
      </trkpt>
      <trkpt lat="50.12929" lon="3.6859">
        <ele>71.400001525879</ele>
        <time>2020-07-22T14:45:58.000Z</time>
      </trkpt>
      <trkpt lat="50.12937" lon="3.68612">
        <ele>71.400001525879</ele>
        <time>2020-07-22T14:46:02.000Z</time>
      </trkpt>
      <trkpt lat="50.12941" lon="3.68643">
        <ele>71.400001525879</ele>
        <time>2020-07-22T14:46:07.000Z</time>
      </trkpt>
      <trkpt lat="50.12929" lon="3.68656">
        <ele>71.400001525879</ele>
        <time>2020-07-22T14:46:10.000Z</time>
      </trkpt>
      <trkpt lat="50.12915" lon="3.68678">
        <ele>71.400001525879</ele>
        <time>2020-07-22T14:46:15.000Z</time>
      </trkpt>
      <trkpt lat="50.12894" lon="3.68705">
        <ele>71</ele>
        <time>2020-07-22T14:46:20.000Z</time>
      </trkpt>
      <trkpt lat="50.12889" lon="3.68709">
        <ele>70.400001525879</ele>
        <time>2020-07-22T14:46:21.000Z</time>
      </trkpt>
      <trkpt lat="50.12883" lon="3.68709">
        <ele>70</ele>
        <time>2020-07-22T14:46:22.000Z</time>
      </trkpt>
      <trkpt lat="50.12877" lon="3.68706">
        <ele>69.599998474121</ele>
        <time>2020-07-22T14:46:23.000Z</time>
      </trkpt>
      <trkpt lat="50.12872" lon="3.68702">
        <ele>69</ele>
        <time>2020-07-22T14:46:24.000Z</time>
      </trkpt>
      <trkpt lat="50.12868" lon="3.68697">
        <ele>69</ele>
        <time>2020-07-22T14:46:25.000Z</time>
      </trkpt>
      <trkpt lat="50.12859" lon="3.68687">
        <ele>69</ele>
        <time>2020-07-22T14:46:27.000Z</time>
      </trkpt>
      <trkpt lat="50.12833" lon="3.68654">
        <ele>69</ele>
        <time>2020-07-22T14:46:34.000Z</time>
      </trkpt>
      <trkpt lat="50.12818" lon="3.68633">
        <ele>69</ele>
        <time>2020-07-22T14:46:39.000Z</time>
      </trkpt>
      <trkpt lat="50.12809" lon="3.68612">
        <ele>69</ele>
        <time>2020-07-22T14:46:44.000Z</time>
      </trkpt>
      <trkpt lat="50.12812" lon="3.68587">
        <ele>69</ele>
        <time>2020-07-22T14:46:49.000Z</time>
      </trkpt>
      <trkpt lat="50.12822" lon="3.6854">
        <ele>69</ele>
        <time>2020-07-22T14:46:55.000Z</time>
      </trkpt>
      <trkpt lat="50.12829" lon="3.68511">
        <ele>69.400001525879</ele>
        <time>2020-07-22T14:46:59.000Z</time>
      </trkpt>
      <trkpt lat="50.12831" lon="3.68504">
        <ele>70</ele>
        <time>2020-07-22T14:47:00.000Z</time>
      </trkpt>
      <trkpt lat="50.12832" lon="3.68498">
        <ele>70.400001525879</ele>
        <time>2020-07-22T14:47:01.000Z</time>
      </trkpt>
      <trkpt lat="50.12833" lon="3.68492">
        <ele>70.800003051758</ele>
        <time>2020-07-22T14:47:02.000Z</time>
      </trkpt>
      <trkpt lat="50.12834" lon="3.68486">
        <ele>71.199996948242</ele>
        <time>2020-07-22T14:47:03.000Z</time>
      </trkpt>
      <trkpt lat="50.12839" lon="3.68461">
        <ele>71.599998474121</ele>
        <time>2020-07-22T14:47:07.000Z</time>
      </trkpt>
      <trkpt lat="50.1284" lon="3.68455">
        <ele>72</ele>
        <time>2020-07-22T14:47:08.000Z</time>
      </trkpt>
      <trkpt lat="50.12841" lon="3.6845">
        <ele>72.400001525879</ele>
        <time>2020-07-22T14:47:09.000Z</time>
      </trkpt>
      <trkpt lat="50.12843" lon="3.68444">
        <ele>73</ele>
        <time>2020-07-22T14:47:10.000Z</time>
      </trkpt>
      <trkpt lat="50.12844" lon="3.68439">
        <ele>73.400001525879</ele>
        <time>2020-07-22T14:47:11.000Z</time>
      </trkpt>
      <trkpt lat="50.1285" lon="3.68422">
        <ele>73.400001525879</ele>
        <time>2020-07-22T14:47:15.000Z</time>
      </trkpt>
      <trkpt lat="50.12854" lon="3.6841">
        <ele>73.800003051758</ele>
        <time>2020-07-22T14:47:18.000Z</time>
      </trkpt>
      <trkpt lat="50.12856" lon="3.68406">
        <ele>74.199996948242</ele>
        <time>2020-07-22T14:47:19.000Z</time>
      </trkpt>
      <trkpt lat="50.12857" lon="3.68402">
        <ele>74.800003051758</ele>
        <time>2020-07-22T14:47:20.000Z</time>
      </trkpt>
      <trkpt lat="50.12859" lon="3.68398">
        <ele>75.199996948242</ele>
        <time>2020-07-22T14:47:21.000Z</time>
      </trkpt>
      <trkpt lat="50.12861" lon="3.68394">
        <ele>75.599998474121</ele>
        <time>2020-07-22T14:47:22.000Z</time>
      </trkpt>
      <trkpt lat="50.12867" lon="3.68384">
        <ele>75.599998474121</ele>
        <time>2020-07-22T14:47:25.000Z</time>
      </trkpt>
      <trkpt lat="50.12878" lon="3.68367">
        <ele>76.199996948242</ele>
        <time>2020-07-22T14:47:30.000Z</time>
      </trkpt>
      <trkpt lat="50.12881" lon="3.68364">
        <ele>76.599998474121</ele>
        <time>2020-07-22T14:47:31.000Z</time>
      </trkpt>
      <trkpt lat="50.12884" lon="3.68361">
        <ele>77</ele>
        <time>2020-07-22T14:47:32.000Z</time>
      </trkpt>
      <trkpt lat="50.12887" lon="3.68358">
        <ele>77.400001525879</ele>
        <time>2020-07-22T14:47:33.000Z</time>
      </trkpt>
      <trkpt lat="50.12889" lon="3.68354">
        <ele>77.800003051758</ele>
        <time>2020-07-22T14:47:34.000Z</time>
      </trkpt>
      <trkpt lat="50.1291" lon="3.68336">
        <ele>77.800003051758</ele>
        <time>2020-07-22T14:47:40.000Z</time>
      </trkpt>
      <trkpt lat="50.12939" lon="3.6832">
        <ele>77.800003051758</ele>
        <time>2020-07-22T14:47:47.000Z</time>
      </trkpt>
      <trkpt lat="50.12971" lon="3.68309">
        <ele>77.800003051758</ele>
        <time>2020-07-22T14:47:53.000Z</time>
      </trkpt>
      <trkpt lat="50.12976" lon="3.68309">
        <ele>77.800003051758</ele>
        <time>2020-07-22T14:47:54.000Z</time>
      </trkpt>
      <trkpt lat="50.1298" lon="3.68308">
        <ele>77.800003051758</ele>
        <time>2020-07-22T14:47:55.000Z</time>
      </trkpt>
      <trkpt lat="50.12987" lon="3.68297">
        <ele>77.800003051758</ele>
        <time>2020-07-22T14:47:57.000Z</time>
      </trkpt>
      <trkpt lat="50.12987" lon="3.6829">
        <ele>77.800003051758</ele>
        <time>2020-07-22T14:47:58.000Z</time>
      </trkpt>
      <trkpt lat="50.12982" lon="3.68268">
        <ele>77.800003051758</ele>
        <time>2020-07-22T14:48:01.000Z</time>
      </trkpt>
      <trkpt lat="50.12988" lon="3.68218">
        <ele>77.800003051758</ele>
        <time>2020-07-22T14:48:07.000Z</time>
      </trkpt>
      <trkpt lat="50.12992" lon="3.68204">
        <ele>77.800003051758</ele>
        <time>2020-07-22T14:48:09.000Z</time>
      </trkpt>
      <trkpt lat="50.12995" lon="3.6819">
        <ele>77.800003051758</ele>
        <time>2020-07-22T14:48:11.000Z</time>
      </trkpt>
      <trkpt lat="50.13" lon="3.68168">
        <ele>77.800003051758</ele>
        <time>2020-07-22T14:48:15.000Z</time>
      </trkpt>
      <trkpt lat="50.13007" lon="3.68122">
        <ele>77.800003051758</ele>
        <time>2020-07-22T14:48:23.000Z</time>
      </trkpt>
      <trkpt lat="50.13014" lon="3.68085">
        <ele>77.800003051758</ele>
        <time>2020-07-22T14:48:29.000Z</time>
      </trkpt>
      <trkpt lat="50.13017" lon="3.68067">
        <ele>78.199996948242</ele>
        <time>2020-07-22T14:48:32.000Z</time>
      </trkpt>
      <trkpt lat="50.13017" lon="3.68061">
        <ele>78.599998474121</ele>
        <time>2020-07-22T14:48:33.000Z</time>
      </trkpt>
      <trkpt lat="50.13018" lon="3.68055">
        <ele>79</ele>
        <time>2020-07-22T14:48:34.000Z</time>
      </trkpt>
      <trkpt lat="50.13019" lon="3.6805">
        <ele>79.400001525879</ele>
        <time>2020-07-22T14:48:35.000Z</time>
      </trkpt>
      <trkpt lat="50.13019" lon="3.68044">
        <ele>80</ele>
        <time>2020-07-22T14:48:36.000Z</time>
      </trkpt>
      <trkpt lat="50.13025" lon="3.67997">
        <ele>80</ele>
        <time>2020-07-22T14:48:44.000Z</time>
      </trkpt>
      <trkpt lat="50.13033" lon="3.67955">
        <ele>80</ele>
        <time>2020-07-22T14:48:51.000Z</time>
      </trkpt>
      <trkpt lat="50.13041" lon="3.67914">
        <ele>80.599998474121</ele>
        <time>2020-07-22T14:48:58.000Z</time>
      </trkpt>
      <trkpt lat="50.13042" lon="3.67909">
        <ele>81.800003051758</ele>
        <time>2020-07-22T14:48:59.000Z</time>
      </trkpt>
      <trkpt lat="50.13043" lon="3.67903">
        <ele>83</ele>
        <time>2020-07-22T14:49:00.000Z</time>
      </trkpt>
      <trkpt lat="50.13045" lon="3.67898">
        <ele>84.599998474121</ele>
        <time>2020-07-22T14:49:01.000Z</time>
      </trkpt>
      <trkpt lat="50.13046" lon="3.67892">
        <ele>86</ele>
        <time>2020-07-22T14:49:02.000Z</time>
      </trkpt>
      <trkpt lat="50.13048" lon="3.67886">
        <ele>87.599998474121</ele>
        <time>2020-07-22T14:49:03.000Z</time>
      </trkpt>
      <trkpt lat="50.13049" lon="3.67879">
        <ele>89.199996948242</ele>
        <time>2020-07-22T14:49:04.000Z</time>
      </trkpt>
      <trkpt lat="50.13051" lon="3.67871">
        <ele>90.800003051758</ele>
        <time>2020-07-22T14:49:05.000Z</time>
      </trkpt>
      <trkpt lat="50.13052" lon="3.67863">
        <ele>92</ele>
        <time>2020-07-22T14:49:06.000Z</time>
      </trkpt>
      <trkpt lat="50.13055" lon="3.67855">
        <ele>93</ele>
        <time>2020-07-22T14:49:07.000Z</time>
      </trkpt>
      <trkpt lat="50.13057" lon="3.67846">
        <ele>94</ele>
        <time>2020-07-22T14:49:08.000Z</time>
      </trkpt>
      <trkpt lat="50.13059" lon="3.67837">
        <ele>95</ele>
        <time>2020-07-22T14:49:09.000Z</time>
      </trkpt>
      <trkpt lat="50.13061" lon="3.67827">
        <ele>96</ele>
        <time>2020-07-22T14:49:10.000Z</time>
      </trkpt>
      <trkpt lat="50.13064" lon="3.67819">
        <ele>96</ele>
        <time>2020-07-22T14:49:11.000Z</time>
      </trkpt>
      <trkpt lat="50.13069" lon="3.678">
        <ele>96</ele>
        <time>2020-07-22T14:49:13.000Z</time>
      </trkpt>
      <trkpt lat="50.13073" lon="3.67779">
        <ele>96</ele>
        <time>2020-07-22T14:49:15.000Z</time>
      </trkpt>
      <trkpt lat="50.13079" lon="3.67753">
        <ele>96</ele>
        <time>2020-07-22T14:49:18.000Z</time>
      </trkpt>
      <trkpt lat="50.13088" lon="3.67712">
        <ele>96.400001525879</ele>
        <time>2020-07-22T14:49:23.000Z</time>
      </trkpt>
      <trkpt lat="50.1309" lon="3.67704">
        <ele>96.800003051758</ele>
        <time>2020-07-22T14:49:24.000Z</time>
      </trkpt>
      <trkpt lat="50.13091" lon="3.67697">
        <ele>97.199996948242</ele>
        <time>2020-07-22T14:49:25.000Z</time>
      </trkpt>
      <trkpt lat="50.13093" lon="3.67689">
        <ele>97.599998474121</ele>
        <time>2020-07-22T14:49:26.000Z</time>
      </trkpt>
      <trkpt lat="50.13095" lon="3.67682">
        <ele>98</ele>
        <time>2020-07-22T14:49:27.000Z</time>
      </trkpt>
      <trkpt lat="50.13106" lon="3.67637">
        <ele>98</ele>
        <time>2020-07-22T14:49:34.000Z</time>
      </trkpt>
      <trkpt lat="50.1311" lon="3.6762">
        <ele>98.599998474121</ele>
        <time>2020-07-22T14:49:37.000Z</time>
      </trkpt>
      <trkpt lat="50.13111" lon="3.67614">
        <ele>99.199996948242</ele>
        <time>2020-07-22T14:49:38.000Z</time>
      </trkpt>
      <trkpt lat="50.13113" lon="3.67608">
        <ele>100.19999694824</ele>
        <time>2020-07-22T14:49:39.000Z</time>
      </trkpt>
      <trkpt lat="50.13114" lon="3.67602">
        <ele>101.19999694824</ele>
        <time>2020-07-22T14:49:40.000Z</time>
      </trkpt>
      <trkpt lat="50.13116" lon="3.67597">
        <ele>102.40000152588</ele>
        <time>2020-07-22T14:49:41.000Z</time>
      </trkpt>
      <trkpt lat="50.13118" lon="3.67591">
        <ele>103.59999847412</ele>
        <time>2020-07-22T14:49:42.000Z</time>
      </trkpt>
      <trkpt lat="50.13119" lon="3.67586">
        <ele>105</ele>
        <time>2020-07-22T14:49:43.000Z</time>
      </trkpt>
      <trkpt lat="50.1312" lon="3.6758">
        <ele>106.40000152588</ele>
        <time>2020-07-22T14:49:44.000Z</time>
      </trkpt>
      <trkpt lat="50.13122" lon="3.67575">
        <ele>107.80000305176</ele>
        <time>2020-07-22T14:49:45.000Z</time>
      </trkpt>
      <trkpt lat="50.13123" lon="3.67569">
        <ele>109.19999694824</ele>
        <time>2020-07-22T14:49:46.000Z</time>
      </trkpt>
      <trkpt lat="50.13125" lon="3.67563">
        <ele>110.40000152588</ele>
        <time>2020-07-22T14:49:47.000Z</time>
      </trkpt>
      <trkpt lat="50.13126" lon="3.67557">
        <ele>111.80000305176</ele>
        <time>2020-07-22T14:49:48.000Z</time>
      </trkpt>
      <trkpt lat="50.13128" lon="3.6755">
        <ele>113</ele>
        <time>2020-07-22T14:49:49.000Z</time>
      </trkpt>
      <trkpt lat="50.1313" lon="3.67543">
        <ele>114.19999694824</ele>
        <time>2020-07-22T14:49:50.000Z</time>
      </trkpt>
      <trkpt lat="50.13132" lon="3.67537">
        <ele>115.59999847412</ele>
        <time>2020-07-22T14:49:51.000Z</time>
      </trkpt>
      <trkpt lat="50.13134" lon="3.6753">
        <ele>117</ele>
        <time>2020-07-22T14:49:52.000Z</time>
      </trkpt>
      <trkpt lat="50.13135" lon="3.67523">
        <ele>118.19999694824</ele>
        <time>2020-07-22T14:49:53.000Z</time>
      </trkpt>
      <trkpt lat="50.13137" lon="3.67517">
        <ele>119.59999847412</ele>
        <time>2020-07-22T14:49:54.000Z</time>
      </trkpt>
      <trkpt lat="50.13139" lon="3.67511">
        <ele>120.80000305176</ele>
        <time>2020-07-22T14:49:55.000Z</time>
      </trkpt>
      <trkpt lat="50.13141" lon="3.67505">
        <ele>121.80000305176</ele>
        <time>2020-07-22T14:49:56.000Z</time>
      </trkpt>
      <trkpt lat="50.13143" lon="3.67499">
        <ele>122.80000305176</ele>
        <time>2020-07-22T14:49:57.000Z</time>
      </trkpt>
      <trkpt lat="50.13144" lon="3.67493">
        <ele>124</ele>
        <time>2020-07-22T14:49:58.000Z</time>
      </trkpt>
      <trkpt lat="50.13146" lon="3.67487">
        <ele>125</ele>
        <time>2020-07-22T14:49:59.000Z</time>
      </trkpt>
      <trkpt lat="50.13148" lon="3.67482">
        <ele>126</ele>
        <time>2020-07-22T14:50:00.000Z</time>
      </trkpt>
      <trkpt lat="50.1315" lon="3.67476">
        <ele>127.19999694824</ele>
        <time>2020-07-22T14:50:01.000Z</time>
      </trkpt>
      <trkpt lat="50.13152" lon="3.67471">
        <ele>128.19999694824</ele>
        <time>2020-07-22T14:50:02.000Z</time>
      </trkpt>
      <trkpt lat="50.13153" lon="3.67466">
        <ele>129.39999389648</ele>
        <time>2020-07-22T14:50:03.000Z</time>
      </trkpt>
      <trkpt lat="50.13155" lon="3.67461">
        <ele>130.19999694824</ele>
        <time>2020-07-22T14:50:04.000Z</time>
      </trkpt>
      <trkpt lat="50.13157" lon="3.67456">
        <ele>131.19999694824</ele>
        <time>2020-07-22T14:50:05.000Z</time>
      </trkpt>
      <trkpt lat="50.13159" lon="3.67451">
        <ele>132</ele>
        <time>2020-07-22T14:50:06.000Z</time>
      </trkpt>
      <trkpt lat="50.1316" lon="3.67446">
        <ele>133</ele>
        <time>2020-07-22T14:50:07.000Z</time>
      </trkpt>
      <trkpt lat="50.13161" lon="3.67441">
        <ele>133.80000305176</ele>
        <time>2020-07-22T14:50:08.000Z</time>
      </trkpt>
      <trkpt lat="50.13163" lon="3.67436">
        <ele>134.39999389648</ele>
        <time>2020-07-22T14:50:09.000Z</time>
      </trkpt>
      <trkpt lat="50.13165" lon="3.67431">
        <ele>134.80000305176</ele>
        <time>2020-07-22T14:50:10.000Z</time>
      </trkpt>
      <trkpt lat="50.13167" lon="3.67425">
        <ele>135.39999389648</ele>
        <time>2020-07-22T14:50:11.000Z</time>
      </trkpt>
      <trkpt lat="50.13169" lon="3.6742">
        <ele>136</ele>
        <time>2020-07-22T14:50:12.000Z</time>
      </trkpt>
      <trkpt lat="50.13171" lon="3.67415">
        <ele>136.60000610352</ele>
        <time>2020-07-22T14:50:13.000Z</time>
      </trkpt>
      <trkpt lat="50.13173" lon="3.6741">
        <ele>137.19999694824</ele>
        <time>2020-07-22T14:50:14.000Z</time>
      </trkpt>
      <trkpt lat="50.13175" lon="3.67405">
        <ele>137.80000305176</ele>
        <time>2020-07-22T14:50:15.000Z</time>
      </trkpt>
      <trkpt lat="50.13177" lon="3.67399">
        <ele>138.39999389648</ele>
        <time>2020-07-22T14:50:16.000Z</time>
      </trkpt>
      <trkpt lat="50.13179" lon="3.67394">
        <ele>139</ele>
        <time>2020-07-22T14:50:17.000Z</time>
      </trkpt>
      <trkpt lat="50.13181" lon="3.67389">
        <ele>139.39999389648</ele>
        <time>2020-07-22T14:50:18.000Z</time>
      </trkpt>
      <trkpt lat="50.13183" lon="3.67385">
        <ele>140</ele>
        <time>2020-07-22T14:50:19.000Z</time>
      </trkpt>
      <trkpt lat="50.13184" lon="3.6738">
        <ele>140.39999389648</ele>
        <time>2020-07-22T14:50:20.000Z</time>
      </trkpt>
      <trkpt lat="50.13186" lon="3.67375">
        <ele>140.80000305176</ele>
        <time>2020-07-22T14:50:21.000Z</time>
      </trkpt>
      <trkpt lat="50.13188" lon="3.6737">
        <ele>141.19999694824</ele>
        <time>2020-07-22T14:50:22.000Z</time>
      </trkpt>
      <trkpt lat="50.1319" lon="3.67365">
        <ele>141.80000305176</ele>
        <time>2020-07-22T14:50:23.000Z</time>
      </trkpt>
      <trkpt lat="50.13192" lon="3.6736">
        <ele>142.39999389648</ele>
        <time>2020-07-22T14:50:24.000Z</time>
      </trkpt>
      <trkpt lat="50.13194" lon="3.67355">
        <ele>143</ele>
        <time>2020-07-22T14:50:25.000Z</time>
      </trkpt>
      <trkpt lat="50.13196" lon="3.67349">
        <ele>143.39999389648</ele>
        <time>2020-07-22T14:50:26.000Z</time>
      </trkpt>
      <trkpt lat="50.132" lon="3.67339">
        <ele>143.80000305176</ele>
        <time>2020-07-22T14:50:28.000Z</time>
      </trkpt>
      <trkpt lat="50.13202" lon="3.67334">
        <ele>144.39999389648</ele>
        <time>2020-07-22T14:50:29.000Z</time>
      </trkpt>
      <trkpt lat="50.13204" lon="3.67328">
        <ele>144.80000305176</ele>
        <time>2020-07-22T14:50:30.000Z</time>
      </trkpt>
      <trkpt lat="50.13206" lon="3.67323">
        <ele>145.19999694824</ele>
        <time>2020-07-22T14:50:31.000Z</time>
      </trkpt>
      <trkpt lat="50.13208" lon="3.67318">
        <ele>145.60000610352</ele>
        <time>2020-07-22T14:50:32.000Z</time>
      </trkpt>
      <trkpt lat="50.13217" lon="3.67296">
        <ele>146</ele>
        <time>2020-07-22T14:50:36.000Z</time>
      </trkpt>
      <trkpt lat="50.13219" lon="3.6729">
        <ele>146.60000610352</ele>
        <time>2020-07-22T14:50:37.000Z</time>
      </trkpt>
      <trkpt lat="50.13221" lon="3.67284">
        <ele>147</ele>
        <time>2020-07-22T14:50:38.000Z</time>
      </trkpt>
      <trkpt lat="50.13224" lon="3.67277">
        <ele>147.39999389648</ele>
        <time>2020-07-22T14:50:39.000Z</time>
      </trkpt>
      <trkpt lat="50.13227" lon="3.67269">
        <ele>147.80000305176</ele>
        <time>2020-07-22T14:50:40.000Z</time>
      </trkpt>
      <trkpt lat="50.13235" lon="3.67247">
        <ele>148.19999694824</ele>
        <time>2020-07-22T14:50:43.000Z</time>
      </trkpt>
      <trkpt lat="50.13238" lon="3.67241">
        <ele>148.60000610352</ele>
        <time>2020-07-22T14:50:44.000Z</time>
      </trkpt>
      <trkpt lat="50.1324" lon="3.67235">
        <ele>149</ele>
        <time>2020-07-22T14:50:45.000Z</time>
      </trkpt>
      <trkpt lat="50.13242" lon="3.67229">
        <ele>149.39999389648</ele>
        <time>2020-07-22T14:50:46.000Z</time>
      </trkpt>
      <trkpt lat="50.13245" lon="3.67224">
        <ele>150</ele>
        <time>2020-07-22T14:50:47.000Z</time>
      </trkpt>
      <trkpt lat="50.13263" lon="3.67177">
        <ele>150</ele>
        <time>2020-07-22T14:50:56.000Z</time>
      </trkpt>
      <trkpt lat="50.13274" lon="3.6715">
        <ele>150.39999389648</ele>
        <time>2020-07-22T14:51:01.000Z</time>
      </trkpt>
      <trkpt lat="50.13276" lon="3.67145">
        <ele>150.80000305176</ele>
        <time>2020-07-22T14:51:02.000Z</time>
      </trkpt>
      <trkpt lat="50.13278" lon="3.67139">
        <ele>151.19999694824</ele>
        <time>2020-07-22T14:51:03.000Z</time>
      </trkpt>
      <trkpt lat="50.1328" lon="3.67133">
        <ele>151.60000610352</ele>
        <time>2020-07-22T14:51:04.000Z</time>
      </trkpt>
      <trkpt lat="50.13283" lon="3.67127">
        <ele>152</ele>
        <time>2020-07-22T14:51:05.000Z</time>
      </trkpt>
      <trkpt lat="50.13287" lon="3.67115">
        <ele>152</ele>
        <time>2020-07-22T14:51:07.000Z</time>
      </trkpt>
      <trkpt lat="50.133" lon="3.67079">
        <ele>152</ele>
        <time>2020-07-22T14:51:14.000Z</time>
      </trkpt>
      <trkpt lat="50.13301" lon="3.67074">
        <ele>152.39999389648</ele>
        <time>2020-07-22T14:51:15.000Z</time>
      </trkpt>
      <trkpt lat="50.13303" lon="3.67069">
        <ele>152.80000305176</ele>
        <time>2020-07-22T14:51:16.000Z</time>
      </trkpt>
      <trkpt lat="50.13305" lon="3.67064">
        <ele>153.19999694824</ele>
        <time>2020-07-22T14:51:17.000Z</time>
      </trkpt>
      <trkpt lat="50.13306" lon="3.67059">
        <ele>153.60000610352</ele>
        <time>2020-07-22T14:51:18.000Z</time>
      </trkpt>
      <trkpt lat="50.13308" lon="3.67054">
        <ele>154</ele>
        <time>2020-07-22T14:51:19.000Z</time>
      </trkpt>
      <trkpt lat="50.13317" lon="3.67025">
        <ele>154</ele>
        <time>2020-07-22T14:51:24.000Z</time>
      </trkpt>
      <trkpt lat="50.13323" lon="3.67012">
        <ele>154.39999389648</ele>
        <time>2020-07-22T14:51:26.000Z</time>
      </trkpt>
      <trkpt lat="50.13325" lon="3.67006">
        <ele>155</ele>
        <time>2020-07-22T14:51:27.000Z</time>
      </trkpt>
      <trkpt lat="50.13328" lon="3.66999">
        <ele>157.60000610352</ele>
        <time>2020-07-22T14:51:28.000Z</time>
      </trkpt>
      <trkpt lat="50.1333" lon="3.66992">
        <ele>158</ele>
        <time>2020-07-22T14:51:29.000Z</time>
      </trkpt>
      <trkpt lat="50.13332" lon="3.66986">
        <ele>158.39999389648</ele>
        <time>2020-07-22T14:51:30.000Z</time>
      </trkpt>
      <trkpt lat="50.13335" lon="3.66979">
        <ele>158.39999389648</ele>
        <time>2020-07-22T14:51:31.000Z</time>
      </trkpt>
      <trkpt lat="50.1335" lon="3.6695">
        <ele>158.39999389648</ele>
        <time>2020-07-22T14:51:36.000Z</time>
      </trkpt>
      <trkpt lat="50.13357" lon="3.6694">
        <ele>158.39999389648</ele>
        <time>2020-07-22T14:51:38.000Z</time>
      </trkpt>
      <trkpt lat="50.13377" lon="3.66915">
        <ele>158.60000610352</ele>
        <time>2020-07-22T14:51:43.000Z</time>
      </trkpt>
      <trkpt lat="50.13381" lon="3.6691">
        <ele>158.80000305176</ele>
        <time>2020-07-22T14:51:44.000Z</time>
      </trkpt>
      <trkpt lat="50.13385" lon="3.66905">
        <ele>159</ele>
        <time>2020-07-22T14:51:45.000Z</time>
      </trkpt>
      <trkpt lat="50.1339" lon="3.669">
        <ele>159.19999694824</ele>
        <time>2020-07-22T14:51:46.000Z</time>
      </trkpt>
      <trkpt lat="50.13394" lon="3.66896">
        <ele>159.39999389648</ele>
        <time>2020-07-22T14:51:47.000Z</time>
      </trkpt>
      <trkpt lat="50.13402" lon="3.66888">
        <ele>159.39999389648</ele>
        <time>2020-07-22T14:51:49.000Z</time>
      </trkpt>
      <trkpt lat="50.13425" lon="3.6686">
        <ele>159.39999389648</ele>
        <time>2020-07-22T14:51:56.000Z</time>
      </trkpt>
      <trkpt lat="50.1344" lon="3.66841">
        <ele>159.39999389648</ele>
        <time>2020-07-22T14:52:02.000Z</time>
      </trkpt>
      <trkpt lat="50.13459" lon="3.66821">
        <ele>159.80000305176</ele>
        <time>2020-07-22T14:52:07.000Z</time>
      </trkpt>
      <trkpt lat="50.13464" lon="3.66815">
        <ele>160.19999694824</ele>
        <time>2020-07-22T14:52:08.000Z</time>
      </trkpt>
      <trkpt lat="50.13468" lon="3.66809">
        <ele>160.60000610352</ele>
        <time>2020-07-22T14:52:09.000Z</time>
      </trkpt>
      <trkpt lat="50.13472" lon="3.66804">
        <ele>161</ele>
        <time>2020-07-22T14:52:10.000Z</time>
      </trkpt>
      <trkpt lat="50.13476" lon="3.66798">
        <ele>161.39999389648</ele>
        <time>2020-07-22T14:52:11.000Z</time>
      </trkpt>
      <trkpt lat="50.13488" lon="3.6678">
        <ele>161.39999389648</ele>
        <time>2020-07-22T14:52:14.000Z</time>
      </trkpt>
      <trkpt lat="50.13497" lon="3.66761">
        <ele>161.39999389648</ele>
        <time>2020-07-22T14:52:17.000Z</time>
      </trkpt>
      <trkpt lat="50.13508" lon="3.66733">
        <ele>161.39999389648</ele>
        <time>2020-07-22T14:52:21.000Z</time>
      </trkpt>
      <trkpt lat="50.13521" lon="3.66697">
        <ele>161.39999389648</ele>
        <time>2020-07-22T14:52:27.000Z</time>
      </trkpt>
      <trkpt lat="50.13539" lon="3.66646">
        <ele>161.39999389648</ele>
        <time>2020-07-22T14:52:35.000Z</time>
      </trkpt>
      <trkpt lat="50.13561" lon="3.66579">
        <ele>161.39999389648</ele>
        <time>2020-07-22T14:52:44.000Z</time>
      </trkpt>
      <trkpt lat="50.13584" lon="3.66507">
        <ele>161.39999389648</ele>
        <time>2020-07-22T14:52:54.000Z</time>
      </trkpt>
      <trkpt lat="50.13605" lon="3.66448">
        <ele>161.39999389648</ele>
        <time>2020-07-22T14:53:02.000Z</time>
      </trkpt>
      <trkpt lat="50.13611" lon="3.66433">
        <ele>161</ele>
        <time>2020-07-22T14:53:04.000Z</time>
      </trkpt>
      <trkpt lat="50.13614" lon="3.66425">
        <ele>160.60000610352</ele>
        <time>2020-07-22T14:53:05.000Z</time>
      </trkpt>
      <trkpt lat="50.13617" lon="3.66417">
        <ele>160.19999694824</ele>
        <time>2020-07-22T14:53:06.000Z</time>
      </trkpt>
      <trkpt lat="50.13619" lon="3.6641">
        <ele>159.80000305176</ele>
        <time>2020-07-22T14:53:07.000Z</time>
      </trkpt>
      <trkpt lat="50.13622" lon="3.66402">
        <ele>159.39999389648</ele>
        <time>2020-07-22T14:53:08.000Z</time>
      </trkpt>
      <trkpt lat="50.1363" lon="3.66381">
        <ele>159.39999389648</ele>
        <time>2020-07-22T14:53:11.000Z</time>
      </trkpt>
      <trkpt lat="50.13654" lon="3.66318">
        <ele>159.39999389648</ele>
        <time>2020-07-22T14:53:20.000Z</time>
      </trkpt>
      <trkpt lat="50.13681" lon="3.66243">
        <ele>159.39999389648</ele>
        <time>2020-07-22T14:53:30.000Z</time>
      </trkpt>
      <trkpt lat="50.13692" lon="3.66216">
        <ele>159.39999389648</ele>
        <time>2020-07-22T14:53:33.000Z</time>
      </trkpt>
      <trkpt lat="50.13701" lon="3.66197">
        <ele>159.39999389648</ele>
        <time>2020-07-22T14:53:35.000Z</time>
      </trkpt>
      <trkpt lat="50.13722" lon="3.66142">
        <ele>159.39999389648</ele>
        <time>2020-07-22T14:53:41.000Z</time>
      </trkpt>
      <trkpt lat="50.13728" lon="3.66117">
        <ele>159.39999389648</ele>
        <time>2020-07-22T14:53:44.000Z</time>
      </trkpt>
      <trkpt lat="50.13733" lon="3.66093">
        <ele>159.39999389648</ele>
        <time>2020-07-22T14:53:47.000Z</time>
      </trkpt>
      <trkpt lat="50.13745" lon="3.66028">
        <ele>159.80000305176</ele>
        <time>2020-07-22T14:53:55.000Z</time>
      </trkpt>
      <trkpt lat="50.13746" lon="3.6602">
        <ele>160.39999389648</ele>
        <time>2020-07-22T14:53:56.000Z</time>
      </trkpt>
      <trkpt lat="50.13747" lon="3.66013">
        <ele>160.80000305176</ele>
        <time>2020-07-22T14:53:57.000Z</time>
      </trkpt>
      <trkpt lat="50.13749" lon="3.66005">
        <ele>161.19999694824</ele>
        <time>2020-07-22T14:53:58.000Z</time>
      </trkpt>
      <trkpt lat="50.1375" lon="3.65998">
        <ele>161.80000305176</ele>
        <time>2020-07-22T14:53:59.000Z</time>
      </trkpt>
      <trkpt lat="50.13754" lon="3.65961">
        <ele>161.80000305176</ele>
        <time>2020-07-22T14:54:04.000Z</time>
      </trkpt>
      <trkpt lat="50.13755" lon="3.65955">
        <ele>161.80000305176</ele>
        <time>2020-07-22T14:54:05.000Z</time>
      </trkpt>
      <trkpt lat="50.13761" lon="3.65948">
        <ele>161.80000305176</ele>
        <time>2020-07-22T14:54:07.000Z</time>
      </trkpt>
      <trkpt lat="50.1377" lon="3.6596">
        <ele>161.80000305176</ele>
        <time>2020-07-22T14:54:09.000Z</time>
      </trkpt>
      <trkpt lat="50.13776" lon="3.65972">
        <ele>161.80000305176</ele>
        <time>2020-07-22T14:54:11.000Z</time>
      </trkpt>
      <trkpt lat="50.13786" lon="3.65986">
        <ele>161.80000305176</ele>
        <time>2020-07-22T14:54:14.000Z</time>
      </trkpt>
      <trkpt lat="50.13815" lon="3.66028">
        <ele>161.80000305176</ele>
        <time>2020-07-22T14:54:22.000Z</time>
      </trkpt>
      <trkpt lat="50.13819" lon="3.66034">
        <ele>161.19999694824</ele>
        <time>2020-07-22T14:54:23.000Z</time>
      </trkpt>
      <trkpt lat="50.13826" lon="3.66046">
        <ele>160.39999389648</ele>
        <time>2020-07-22T14:54:25.000Z</time>
      </trkpt>
      <trkpt lat="50.13834" lon="3.66057">
        <ele>159.39999389648</ele>
        <time>2020-07-22T14:54:27.000Z</time>
      </trkpt>
      <trkpt lat="50.13863" lon="3.66099">
        <ele>159.39999389648</ele>
        <time>2020-07-22T14:54:34.000Z</time>
      </trkpt>
      <trkpt lat="50.13898" lon="3.66149">
        <ele>159.39999389648</ele>
        <time>2020-07-22T14:54:42.000Z</time>
      </trkpt>
      <trkpt lat="50.13911" lon="3.66167">
        <ele>159</ele>
        <time>2020-07-22T14:54:45.000Z</time>
      </trkpt>
      <trkpt lat="50.13915" lon="3.66173">
        <ele>158.60000610352</ele>
        <time>2020-07-22T14:54:46.000Z</time>
      </trkpt>
      <trkpt lat="50.13919" lon="3.66178">
        <ele>158.19999694824</ele>
        <time>2020-07-22T14:54:47.000Z</time>
      </trkpt>
      <trkpt lat="50.13923" lon="3.66185">
        <ele>157.80000305176</ele>
        <time>2020-07-22T14:54:48.000Z</time>
      </trkpt>
      <trkpt lat="50.13926" lon="3.66191">
        <ele>157.39999389648</ele>
        <time>2020-07-22T14:54:49.000Z</time>
      </trkpt>
      <trkpt lat="50.1393" lon="3.66196">
        <ele>157.39999389648</ele>
        <time>2020-07-22T14:54:50.000Z</time>
      </trkpt>
      <trkpt lat="50.13952" lon="3.6623">
        <ele>157.39999389648</ele>
        <time>2020-07-22T14:54:56.000Z</time>
      </trkpt>
      <trkpt lat="50.13978" lon="3.66267">
        <ele>157.39999389648</ele>
        <time>2020-07-22T14:55:01.000Z</time>
      </trkpt>
      <trkpt lat="50.14" lon="3.66296">
        <ele>157</ele>
        <time>2020-07-22T14:55:05.000Z</time>
      </trkpt>
      <trkpt lat="50.14005" lon="3.66304">
        <ele>156.60000610352</ele>
        <time>2020-07-22T14:55:06.000Z</time>
      </trkpt>
      <trkpt lat="50.14011" lon="3.66314">
        <ele>156</ele>
        <time>2020-07-22T14:55:07.000Z</time>
      </trkpt>
      <trkpt lat="50.14017" lon="3.66323">
        <ele>155.60000610352</ele>
        <time>2020-07-22T14:55:08.000Z</time>
      </trkpt>
      <trkpt lat="50.14023" lon="3.66333">
        <ele>155.19999694824</ele>
        <time>2020-07-22T14:55:09.000Z</time>
      </trkpt>
      <trkpt lat="50.14055" lon="3.6638">
        <ele>155.19999694824</ele>
        <time>2020-07-22T14:55:15.000Z</time>
      </trkpt>
      <trkpt lat="50.14079" lon="3.66416">
        <ele>155.19999694824</ele>
        <time>2020-07-22T14:55:21.000Z</time>
      </trkpt>
      <trkpt lat="50.14111" lon="3.66463">
        <ele>155.60000610352</ele>
        <time>2020-07-22T14:55:29.000Z</time>
      </trkpt>
      <trkpt lat="50.14115" lon="3.66468">
        <ele>156</ele>
        <time>2020-07-22T14:55:30.000Z</time>
      </trkpt>
      <trkpt lat="50.14119" lon="3.66473">
        <ele>156.60000610352</ele>
        <time>2020-07-22T14:55:31.000Z</time>
      </trkpt>
      <trkpt lat="50.14122" lon="3.66478">
        <ele>157</ele>
        <time>2020-07-22T14:55:32.000Z</time>
      </trkpt>
      <trkpt lat="50.14126" lon="3.66484">
        <ele>157.39999389648</ele>
        <time>2020-07-22T14:55:33.000Z</time>
      </trkpt>
      <trkpt lat="50.14134" lon="3.66496">
        <ele>157.39999389648</ele>
        <time>2020-07-22T14:55:35.000Z</time>
      </trkpt>
      <trkpt lat="50.14161" lon="3.66535">
        <ele>157.80000305176</ele>
        <time>2020-07-22T14:55:41.000Z</time>
      </trkpt>
      <trkpt lat="50.14165" lon="3.66542">
        <ele>158.39999389648</ele>
        <time>2020-07-22T14:55:42.000Z</time>
      </trkpt>
      <trkpt lat="50.14169" lon="3.66548">
        <ele>158.80000305176</ele>
        <time>2020-07-22T14:55:43.000Z</time>
      </trkpt>
      <trkpt lat="50.14174" lon="3.66555">
        <ele>159.19999694824</ele>
        <time>2020-07-22T14:55:44.000Z</time>
      </trkpt>
      <trkpt lat="50.14179" lon="3.66561">
        <ele>159.80000305176</ele>
        <time>2020-07-22T14:55:45.000Z</time>
      </trkpt>
      <trkpt lat="50.14188" lon="3.66573">
        <ele>160.19999694824</ele>
        <time>2020-07-22T14:55:47.000Z</time>
      </trkpt>
      <trkpt lat="50.14192" lon="3.6658">
        <ele>160.60000610352</ele>
        <time>2020-07-22T14:55:48.000Z</time>
      </trkpt>
      <trkpt lat="50.14196" lon="3.66586">
        <ele>161.19999694824</ele>
        <time>2020-07-22T14:55:49.000Z</time>
      </trkpt>
      <trkpt lat="50.14201" lon="3.66592">
        <ele>161.60000610352</ele>
        <time>2020-07-22T14:55:50.000Z</time>
      </trkpt>
      <trkpt lat="50.14205" lon="3.66599">
        <ele>162</ele>
        <time>2020-07-22T14:55:51.000Z</time>
      </trkpt>
      <trkpt lat="50.14209" lon="3.66605">
        <ele>162</ele>
        <time>2020-07-22T14:55:52.000Z</time>
      </trkpt>
      <trkpt lat="50.1422" lon="3.66619">
        <ele>162</ele>
        <time>2020-07-22T14:55:55.000Z</time>
      </trkpt>
      <trkpt lat="50.14225" lon="3.66627">
        <ele>162</ele>
        <time>2020-07-22T14:55:57.000Z</time>
      </trkpt>
      <trkpt lat="50.14241" lon="3.66653">
        <ele>162</ele>
        <time>2020-07-22T14:56:05.000Z</time>
      </trkpt>
      <trkpt lat="50.14258" lon="3.66677">
        <ele>162</ele>
        <time>2020-07-22T14:56:11.000Z</time>
      </trkpt>
      <trkpt lat="50.14275" lon="3.66704">
        <ele>162</ele>
        <time>2020-07-22T14:56:18.000Z</time>
      </trkpt>
      <trkpt lat="50.14283" lon="3.66717">
        <ele>162</ele>
        <time>2020-07-22T14:56:23.000Z</time>
      </trkpt>
      <trkpt lat="50.14284" lon="3.66716">
        <ele>162</ele>
        <time>2020-07-22T14:56:25.000Z</time>
      </trkpt>
      <trkpt lat="50.14284" lon="3.66719">
        <ele>162</ele>
        <time>2020-07-22T14:56:40.000Z</time>
      </trkpt>
      <trkpt lat="50.14274" lon="3.66738">
        <ele>162</ele>
        <time>2020-07-22T14:56:44.000Z</time>
      </trkpt>
      <trkpt lat="50.14266" lon="3.66749">
        <ele>162</ele>
        <time>2020-07-22T14:56:46.000Z</time>
      </trkpt>
      <trkpt lat="50.14254" lon="3.66769">
        <ele>162</ele>
        <time>2020-07-22T14:56:49.000Z</time>
      </trkpt>
      <trkpt lat="50.14235" lon="3.66801">
        <ele>162.39999389648</ele>
        <time>2020-07-22T14:56:54.000Z</time>
      </trkpt>
      <trkpt lat="50.14231" lon="3.6681">
        <ele>162.80000305176</ele>
        <time>2020-07-22T14:56:55.000Z</time>
      </trkpt>
      <trkpt lat="50.14226" lon="3.66818">
        <ele>163.19999694824</ele>
        <time>2020-07-22T14:56:56.000Z</time>
      </trkpt>
      <trkpt lat="50.14222" lon="3.66825">
        <ele>163.60000610352</ele>
        <time>2020-07-22T14:56:57.000Z</time>
      </trkpt>
      <trkpt lat="50.14218" lon="3.66832">
        <ele>164.19999694824</ele>
        <time>2020-07-22T14:56:58.000Z</time>
      </trkpt>
      <trkpt lat="50.14182" lon="3.66895">
        <ele>164.19999694824</ele>
        <time>2020-07-22T14:57:07.000Z</time>
      </trkpt>
      <trkpt lat="50.14174" lon="3.66909">
        <ele>164.19999694824</ele>
        <time>2020-07-22T14:57:09.000Z</time>
      </trkpt>
      <trkpt lat="50.14135" lon="3.66974">
        <ele>164.19999694824</ele>
        <time>2020-07-22T14:57:19.000Z</time>
      </trkpt>
      <trkpt lat="50.14109" lon="3.67023">
        <ele>164.19999694824</ele>
        <time>2020-07-22T14:57:26.000Z</time>
      </trkpt>
      <trkpt lat="50.14108" lon="3.67031">
        <ele>164.19999694824</ele>
        <time>2020-07-22T14:57:27.000Z</time>
      </trkpt>
      <trkpt lat="50.14112" lon="3.67063">
        <ele>164.19999694824</ele>
        <time>2020-07-22T14:57:30.000Z</time>
      </trkpt>
      <trkpt lat="50.14112" lon="3.67093">
        <ele>164.19999694824</ele>
        <time>2020-07-22T14:57:33.000Z</time>
      </trkpt>
      <trkpt lat="50.14112" lon="3.67112">
        <ele>164.19999694824</ele>
        <time>2020-07-22T14:57:35.000Z</time>
      </trkpt>
      <trkpt lat="50.14118" lon="3.67169">
        <ele>164.19999694824</ele>
        <time>2020-07-22T14:57:41.000Z</time>
      </trkpt>
      <trkpt lat="50.14123" lon="3.67201">
        <ele>163.60000610352</ele>
        <time>2020-07-22T14:57:44.000Z</time>
      </trkpt>
      <trkpt lat="50.14125" lon="3.67212">
        <ele>163.19999694824</ele>
        <time>2020-07-22T14:57:45.000Z</time>
      </trkpt>
      <trkpt lat="50.14127" lon="3.67222">
        <ele>162.80000305176</ele>
        <time>2020-07-22T14:57:46.000Z</time>
      </trkpt>
      <trkpt lat="50.1413" lon="3.67233">
        <ele>162.39999389648</ele>
        <time>2020-07-22T14:57:47.000Z</time>
      </trkpt>
      <trkpt lat="50.14131" lon="3.67244">
        <ele>162</ele>
        <time>2020-07-22T14:57:48.000Z</time>
      </trkpt>
      <trkpt lat="50.14132" lon="3.67263">
        <ele>162</ele>
        <time>2020-07-22T14:57:50.000Z</time>
      </trkpt>
      <trkpt lat="50.14131" lon="3.67273">
        <ele>162</ele>
        <time>2020-07-22T14:57:51.000Z</time>
      </trkpt>
      <trkpt lat="50.14125" lon="3.6732">
        <ele>162</ele>
        <time>2020-07-22T14:57:56.000Z</time>
      </trkpt>
      <trkpt lat="50.14123" lon="3.67343">
        <ele>162</ele>
        <time>2020-07-22T14:57:58.000Z</time>
      </trkpt>
      <trkpt lat="50.14122" lon="3.67359">
        <ele>162</ele>
        <time>2020-07-22T14:58:00.000Z</time>
      </trkpt>
      <trkpt lat="50.14118" lon="3.67404">
        <ele>162</ele>
        <time>2020-07-22T14:58:07.000Z</time>
      </trkpt>
      <trkpt lat="50.14115" lon="3.67445">
        <ele>162</ele>
        <time>2020-07-22T14:58:14.000Z</time>
      </trkpt>
      <trkpt lat="50.14113" lon="3.67469">
        <ele>162</ele>
        <time>2020-07-22T14:58:19.000Z</time>
      </trkpt>
      <trkpt lat="50.1411" lon="3.67504">
        <ele>162</ele>
        <time>2020-07-22T14:58:25.000Z</time>
      </trkpt>
      <trkpt lat="50.14105" lon="3.6754">
        <ele>162</ele>
        <time>2020-07-22T14:58:31.000Z</time>
      </trkpt>
      <trkpt lat="50.14103" lon="3.67579">
        <ele>162</ele>
        <time>2020-07-22T14:58:37.000Z</time>
      </trkpt>
      <trkpt lat="50.14098" lon="3.67628">
        <ele>162</ele>
        <time>2020-07-22T14:58:44.000Z</time>
      </trkpt>
      <trkpt lat="50.14092" lon="3.67701">
        <ele>162</ele>
        <time>2020-07-22T14:58:54.000Z</time>
      </trkpt>
      <trkpt lat="50.14088" lon="3.67756">
        <ele>162</ele>
        <time>2020-07-22T14:59:02.000Z</time>
      </trkpt>
      <trkpt lat="50.14083" lon="3.67781">
        <ele>161.60000610352</ele>
        <time>2020-07-22T14:59:07.000Z</time>
      </trkpt>
      <trkpt lat="50.14081" lon="3.67785">
        <ele>161.19999694824</ele>
        <time>2020-07-22T14:59:08.000Z</time>
      </trkpt>
      <trkpt lat="50.1408" lon="3.6779">
        <ele>160.60000610352</ele>
        <time>2020-07-22T14:59:09.000Z</time>
      </trkpt>
      <trkpt lat="50.14079" lon="3.67797">
        <ele>160.19999694824</ele>
        <time>2020-07-22T14:59:10.000Z</time>
      </trkpt>
      <trkpt lat="50.14078" lon="3.67804">
        <ele>159.80000305176</ele>
        <time>2020-07-22T14:59:11.000Z</time>
      </trkpt>
      <trkpt lat="50.14077" lon="3.67818">
        <ele>159.80000305176</ele>
        <time>2020-07-22T14:59:13.000Z</time>
      </trkpt>
      <trkpt lat="50.14064" lon="3.67874">
        <ele>159.80000305176</ele>
        <time>2020-07-22T14:59:21.000Z</time>
      </trkpt>
      <trkpt lat="50.14059" lon="3.67893">
        <ele>160.19999694824</ele>
        <time>2020-07-22T14:59:24.000Z</time>
      </trkpt>
      <trkpt lat="50.14058" lon="3.67898">
        <ele>160.60000610352</ele>
        <time>2020-07-22T14:59:25.000Z</time>
      </trkpt>
      <trkpt lat="50.14056" lon="3.67904">
        <ele>161</ele>
        <time>2020-07-22T14:59:26.000Z</time>
      </trkpt>
      <trkpt lat="50.14055" lon="3.6791">
        <ele>161.60000610352</ele>
        <time>2020-07-22T14:59:27.000Z</time>
      </trkpt>
      <trkpt lat="50.14054" lon="3.67917">
        <ele>162</ele>
        <time>2020-07-22T14:59:28.000Z</time>
      </trkpt>
      <trkpt lat="50.14051" lon="3.6793">
        <ele>162</ele>
        <time>2020-07-22T14:59:30.000Z</time>
      </trkpt>
      <trkpt lat="50.14042" lon="3.67976">
        <ele>162</ele>
        <time>2020-07-22T14:59:37.000Z</time>
      </trkpt>
      <trkpt lat="50.1404" lon="3.67992">
        <ele>162</ele>
        <time>2020-07-22T14:59:39.000Z</time>
      </trkpt>
      <trkpt lat="50.14034" lon="3.68035">
        <ele>162</ele>
        <time>2020-07-22T14:59:45.000Z</time>
      </trkpt>
      <trkpt lat="50.14033" lon="3.68049">
        <ele>162</ele>
        <time>2020-07-22T14:59:47.000Z</time>
      </trkpt>
      <trkpt lat="50.1403" lon="3.68079">
        <ele>162</ele>
        <time>2020-07-22T14:59:51.000Z</time>
      </trkpt>
      <trkpt lat="50.14026" lon="3.68122">
        <ele>162</ele>
        <time>2020-07-22T14:59:56.000Z</time>
      </trkpt>
      <trkpt lat="50.1402" lon="3.68157">
        <ele>162</ele>
        <time>2020-07-22T15:00:01.000Z</time>
      </trkpt>
      <trkpt lat="50.14018" lon="3.68167">
        <ele>162.39999389648</ele>
        <time>2020-07-22T15:00:03.000Z</time>
      </trkpt>
      <trkpt lat="50.14017" lon="3.68172">
        <ele>162.80000305176</ele>
        <time>2020-07-22T15:00:04.000Z</time>
      </trkpt>
      <trkpt lat="50.14016" lon="3.68178">
        <ele>163.19999694824</ele>
        <time>2020-07-22T15:00:05.000Z</time>
      </trkpt>
      <trkpt lat="50.14015" lon="3.68182">
        <ele>163.60000610352</ele>
        <time>2020-07-22T15:00:06.000Z</time>
      </trkpt>
      <trkpt lat="50.14014" lon="3.68187">
        <ele>164</ele>
        <time>2020-07-22T15:00:07.000Z</time>
      </trkpt>
      <trkpt lat="50.14002" lon="3.68235">
        <ele>164.39999389648</ele>
        <time>2020-07-22T15:00:16.000Z</time>
      </trkpt>
      <trkpt lat="50.14002" lon="3.68241">
        <ele>164.80000305176</ele>
        <time>2020-07-22T15:00:17.000Z</time>
      </trkpt>
      <trkpt lat="50.14" lon="3.68247">
        <ele>165.19999694824</ele>
        <time>2020-07-22T15:00:18.000Z</time>
      </trkpt>
      <trkpt lat="50.13999" lon="3.68253">
        <ele>165.60000610352</ele>
        <time>2020-07-22T15:00:19.000Z</time>
      </trkpt>
      <trkpt lat="50.13998" lon="3.68259">
        <ele>166</ele>
        <time>2020-07-22T15:00:20.000Z</time>
      </trkpt>
      <trkpt lat="50.13993" lon="3.68281">
        <ele>166</ele>
        <time>2020-07-22T15:00:24.000Z</time>
      </trkpt>
      <trkpt lat="50.13985" lon="3.68328">
        <ele>166</ele>
        <time>2020-07-22T15:00:33.000Z</time>
      </trkpt>
      <trkpt lat="50.1398" lon="3.6837">
        <ele>166</ele>
        <time>2020-07-22T15:00:41.000Z</time>
      </trkpt>
      <trkpt lat="50.13977" lon="3.68409">
        <ele>166</ele>
        <time>2020-07-22T15:00:49.000Z</time>
      </trkpt>
      <trkpt lat="50.13974" lon="3.68454">
        <ele>166</ele>
        <time>2020-07-22T15:00:57.000Z</time>
      </trkpt>
      <trkpt lat="50.13973" lon="3.68502">
        <ele>166</ele>
        <time>2020-07-22T15:01:06.000Z</time>
      </trkpt>
      <trkpt lat="50.13972" lon="3.68544">
        <ele>166</ele>
        <time>2020-07-22T15:01:12.000Z</time>
      </trkpt>
      <trkpt lat="50.13969" lon="3.68622">
        <ele>166</ele>
        <time>2020-07-22T15:01:22.000Z</time>
      </trkpt>
      <trkpt lat="50.13967" lon="3.6868">
        <ele>166</ele>
        <time>2020-07-22T15:01:29.000Z</time>
      </trkpt>
      <trkpt lat="50.13964" lon="3.68739">
        <ele>166</ele>
        <time>2020-07-22T15:01:36.000Z</time>
      </trkpt>
      <trkpt lat="50.13963" lon="3.68747">
        <ele>165.60000610352</ele>
        <time>2020-07-22T15:01:37.000Z</time>
      </trkpt>
      <trkpt lat="50.13962" lon="3.68755">
        <ele>165.19999694824</ele>
        <time>2020-07-22T15:01:38.000Z</time>
      </trkpt>
      <trkpt lat="50.13962" lon="3.68762">
        <ele>164.80000305176</ele>
        <time>2020-07-22T15:01:39.000Z</time>
      </trkpt>
      <trkpt lat="50.13961" lon="3.68769">
        <ele>164.39999389648</ele>
        <time>2020-07-22T15:01:40.000Z</time>
      </trkpt>
      <trkpt lat="50.13961" lon="3.68777">
        <ele>164</ele>
        <time>2020-07-22T15:01:41.000Z</time>
      </trkpt>
      <trkpt lat="50.13959" lon="3.68797">
        <ele>164</ele>
        <time>2020-07-22T15:01:44.000Z</time>
      </trkpt>
      <trkpt lat="50.13958" lon="3.68823">
        <ele>164</ele>
        <time>2020-07-22T15:01:48.000Z</time>
      </trkpt>
      <trkpt lat="50.13957" lon="3.68836">
        <ele>164</ele>
        <time>2020-07-22T15:01:50.000Z</time>
      </trkpt>
      <trkpt lat="50.13954" lon="3.68897">
        <ele>164</ele>
        <time>2020-07-22T15:02:00.000Z</time>
      </trkpt>
      <trkpt lat="50.13951" lon="3.68938">
        <ele>164</ele>
        <time>2020-07-22T15:02:08.000Z</time>
      </trkpt>
      <trkpt lat="50.1395" lon="3.68977">
        <ele>164</ele>
        <time>2020-07-22T15:02:14.000Z</time>
      </trkpt>
      <trkpt lat="50.13946" lon="3.69029">
        <ele>164</ele>
        <time>2020-07-22T15:02:20.000Z</time>
      </trkpt>
      <trkpt lat="50.13943" lon="3.69046">
        <ele>164</ele>
        <time>2020-07-22T15:02:22.000Z</time>
      </trkpt>
      <trkpt lat="50.13935" lon="3.69081">
        <ele>163.60000610352</ele>
        <time>2020-07-22T15:02:26.000Z</time>
      </trkpt>
      <trkpt lat="50.13934" lon="3.69089">
        <ele>163</ele>
        <time>2020-07-22T15:02:27.000Z</time>
      </trkpt>
      <trkpt lat="50.13934" lon="3.69098">
        <ele>162.60000610352</ele>
        <time>2020-07-22T15:02:28.000Z</time>
      </trkpt>
      <trkpt lat="50.13933" lon="3.69107">
        <ele>162.19999694824</ele>
        <time>2020-07-22T15:02:29.000Z</time>
      </trkpt>
      <trkpt lat="50.13934" lon="3.69116">
        <ele>161.60000610352</ele>
        <time>2020-07-22T15:02:30.000Z</time>
      </trkpt>
      <trkpt lat="50.13934" lon="3.69125">
        <ele>161.60000610352</ele>
        <time>2020-07-22T15:02:31.000Z</time>
      </trkpt>
      <trkpt lat="50.13938" lon="3.69176">
        <ele>161.60000610352</ele>
        <time>2020-07-22T15:02:37.000Z</time>
      </trkpt>
      <trkpt lat="50.13939" lon="3.69209">
        <ele>161.60000610352</ele>
        <time>2020-07-22T15:02:41.000Z</time>
      </trkpt>
      <trkpt lat="50.13939" lon="3.69232">
        <ele>161.60000610352</ele>
        <time>2020-07-22T15:02:44.000Z</time>
      </trkpt>
      <trkpt lat="50.13932" lon="3.6928">
        <ele>161.60000610352</ele>
        <time>2020-07-22T15:02:51.000Z</time>
      </trkpt>
      <trkpt lat="50.13919" lon="3.69341">
        <ele>161.60000610352</ele>
        <time>2020-07-22T15:03:00.000Z</time>
      </trkpt>
      <trkpt lat="50.13916" lon="3.69365">
        <ele>160.80000305176</ele>
        <time>2020-07-22T15:03:03.000Z</time>
      </trkpt>
      <trkpt lat="50.13915" lon="3.69374">
        <ele>160.39999389648</ele>
        <time>2020-07-22T15:03:04.000Z</time>
      </trkpt>
      <trkpt lat="50.13915" lon="3.69381">
        <ele>160</ele>
        <time>2020-07-22T15:03:05.000Z</time>
      </trkpt>
      <trkpt lat="50.13914" lon="3.69389">
        <ele>159.60000610352</ele>
        <time>2020-07-22T15:03:06.000Z</time>
      </trkpt>
      <trkpt lat="50.13913" lon="3.69399">
        <ele>159.60000610352</ele>
        <time>2020-07-22T15:03:07.000Z</time>
      </trkpt>
      <trkpt lat="50.1391" lon="3.6943">
        <ele>159.60000610352</ele>
        <time>2020-07-22T15:03:11.000Z</time>
      </trkpt>
      <trkpt lat="50.1391" lon="3.69446">
        <ele>159.60000610352</ele>
        <time>2020-07-22T15:03:13.000Z</time>
      </trkpt>
      <trkpt lat="50.13906" lon="3.69468">
        <ele>159.60000610352</ele>
        <time>2020-07-22T15:03:15.000Z</time>
      </trkpt>
      <trkpt lat="50.13902" lon="3.69487">
        <ele>159.60000610352</ele>
        <time>2020-07-22T15:03:17.000Z</time>
      </trkpt>
      <trkpt lat="50.13901" lon="3.69497">
        <ele>159.60000610352</ele>
        <time>2020-07-22T15:03:18.000Z</time>
      </trkpt>
      <trkpt lat="50.13897" lon="3.69539">
        <ele>159.60000610352</ele>
        <time>2020-07-22T15:03:22.000Z</time>
      </trkpt>
      <trkpt lat="50.13895" lon="3.69549">
        <ele>159.19999694824</ele>
        <time>2020-07-22T15:03:23.000Z</time>
      </trkpt>
      <trkpt lat="50.13894" lon="3.69557">
        <ele>158.80000305176</ele>
        <time>2020-07-22T15:03:24.000Z</time>
      </trkpt>
      <trkpt lat="50.13891" lon="3.69566">
        <ele>158.39999389648</ele>
        <time>2020-07-22T15:03:25.000Z</time>
      </trkpt>
      <trkpt lat="50.1389" lon="3.69574">
        <ele>157.80000305176</ele>
        <time>2020-07-22T15:03:26.000Z</time>
      </trkpt>
      <trkpt lat="50.13888" lon="3.69582">
        <ele>157.39999389648</ele>
        <time>2020-07-22T15:03:27.000Z</time>
      </trkpt>
      <trkpt lat="50.13881" lon="3.69627">
        <ele>157.39999389648</ele>
        <time>2020-07-22T15:03:33.000Z</time>
      </trkpt>
      <trkpt lat="50.13878" lon="3.69641">
        <ele>157.39999389648</ele>
        <time>2020-07-22T15:03:35.000Z</time>
      </trkpt>
      <trkpt lat="50.13872" lon="3.69699">
        <ele>157.39999389648</ele>
        <time>2020-07-22T15:03:42.000Z</time>
      </trkpt>
      <trkpt lat="50.13871" lon="3.69735">
        <ele>157.39999389648</ele>
        <time>2020-07-22T15:03:47.000Z</time>
      </trkpt>
      <trkpt lat="50.13872" lon="3.69749">
        <ele>157.39999389648</ele>
        <time>2020-07-22T15:03:49.000Z</time>
      </trkpt>
      <trkpt lat="50.13872" lon="3.6977">
        <ele>157.39999389648</ele>
        <time>2020-07-22T15:03:52.000Z</time>
      </trkpt>
      <trkpt lat="50.13871" lon="3.698">
        <ele>157</ele>
        <time>2020-07-22T15:03:56.000Z</time>
      </trkpt>
      <trkpt lat="50.13871" lon="3.69809">
        <ele>156.60000610352</ele>
        <time>2020-07-22T15:03:57.000Z</time>
      </trkpt>
      <trkpt lat="50.1387" lon="3.69817">
        <ele>156.19999694824</ele>
        <time>2020-07-22T15:03:58.000Z</time>
      </trkpt>
      <trkpt lat="50.1387" lon="3.69825">
        <ele>155.60000610352</ele>
        <time>2020-07-22T15:03:59.000Z</time>
      </trkpt>
      <trkpt lat="50.13869" lon="3.69833">
        <ele>155.19999694824</ele>
        <time>2020-07-22T15:04:00.000Z</time>
      </trkpt>
      <trkpt lat="50.13864" lon="3.69864">
        <ele>155.19999694824</ele>
        <time>2020-07-22T15:04:04.000Z</time>
      </trkpt>
      <trkpt lat="50.13858" lon="3.699">
        <ele>154.80000305176</ele>
        <time>2020-07-22T15:04:09.000Z</time>
      </trkpt>
      <trkpt lat="50.13855" lon="3.69908">
        <ele>154.39999389648</ele>
        <time>2020-07-22T15:04:10.000Z</time>
      </trkpt>
      <trkpt lat="50.13854" lon="3.69916">
        <ele>154</ele>
        <time>2020-07-22T15:04:11.000Z</time>
      </trkpt>
      <trkpt lat="50.13853" lon="3.69924">
        <ele>153.60000610352</ele>
        <time>2020-07-22T15:04:12.000Z</time>
      </trkpt>
      <trkpt lat="50.13852" lon="3.69932">
        <ele>153.19999694824</ele>
        <time>2020-07-22T15:04:13.000Z</time>
      </trkpt>
      <trkpt lat="50.13848" lon="3.69966">
        <ele>153.19999694824</ele>
        <time>2020-07-22T15:04:17.000Z</time>
      </trkpt>
      <trkpt lat="50.13847" lon="3.69975">
        <ele>152.80000305176</ele>
        <time>2020-07-22T15:04:18.000Z</time>
      </trkpt>
      <trkpt lat="50.13845" lon="3.69985">
        <ele>152.39999389648</ele>
        <time>2020-07-22T15:04:19.000Z</time>
      </trkpt>
      <trkpt lat="50.13844" lon="3.69994">
        <ele>151.80000305176</ele>
        <time>2020-07-22T15:04:20.000Z</time>
      </trkpt>
      <trkpt lat="50.13843" lon="3.70003">
        <ele>151.39999389648</ele>
        <time>2020-07-22T15:04:21.000Z</time>
      </trkpt>
      <trkpt lat="50.13841" lon="3.70013">
        <ele>151</ele>
        <time>2020-07-22T15:04:22.000Z</time>
      </trkpt>
      <trkpt lat="50.13839" lon="3.70036">
        <ele>151</ele>
        <time>2020-07-22T15:04:24.000Z</time>
      </trkpt>
      <trkpt lat="50.13837" lon="3.70054">
        <ele>150.60000610352</ele>
        <time>2020-07-22T15:04:26.000Z</time>
      </trkpt>
      <trkpt lat="50.13836" lon="3.70065">
        <ele>150.19999694824</ele>
        <time>2020-07-22T15:04:27.000Z</time>
      </trkpt>
      <trkpt lat="50.13836" lon="3.70075">
        <ele>149.80000305176</ele>
        <time>2020-07-22T15:04:28.000Z</time>
      </trkpt>
      <trkpt lat="50.13836" lon="3.70084">
        <ele>149.39999389648</ele>
        <time>2020-07-22T15:04:29.000Z</time>
      </trkpt>
      <trkpt lat="50.1384" lon="3.70095">
        <ele>149</ele>
        <time>2020-07-22T15:04:30.000Z</time>
      </trkpt>
      <trkpt lat="50.13854" lon="3.70139">
        <ele>148.60000610352</ele>
        <time>2020-07-22T15:04:35.000Z</time>
      </trkpt>
      <trkpt lat="50.13854" lon="3.70149">
        <ele>148</ele>
        <time>2020-07-22T15:04:36.000Z</time>
      </trkpt>
      <trkpt lat="50.13852" lon="3.70158">
        <ele>147.60000610352</ele>
        <time>2020-07-22T15:04:37.000Z</time>
      </trkpt>
      <trkpt lat="50.1385" lon="3.70168">
        <ele>147.19999694824</ele>
        <time>2020-07-22T15:04:38.000Z</time>
      </trkpt>
      <trkpt lat="50.13847" lon="3.70177">
        <ele>146.80000305176</ele>
        <time>2020-07-22T15:04:39.000Z</time>
      </trkpt>
      <trkpt lat="50.1384" lon="3.70198">
        <ele>146.80000305176</ele>
        <time>2020-07-22T15:04:41.000Z</time>
      </trkpt>
      <trkpt lat="50.13833" lon="3.70216">
        <ele>146.39999389648</ele>
        <time>2020-07-22T15:04:43.000Z</time>
      </trkpt>
      <trkpt lat="50.1383" lon="3.70224">
        <ele>146</ele>
        <time>2020-07-22T15:04:44.000Z</time>
      </trkpt>
      <trkpt lat="50.13827" lon="3.70235">
        <ele>145.39999389648</ele>
        <time>2020-07-22T15:04:45.000Z</time>
      </trkpt>
      <trkpt lat="50.13823" lon="3.70244">
        <ele>145</ele>
        <time>2020-07-22T15:04:46.000Z</time>
      </trkpt>
      <trkpt lat="50.1382" lon="3.70253">
        <ele>144.60000610352</ele>
        <time>2020-07-22T15:04:47.000Z</time>
      </trkpt>
      <trkpt lat="50.13815" lon="3.70268">
        <ele>144.60000610352</ele>
        <time>2020-07-22T15:04:49.000Z</time>
      </trkpt>
      <trkpt lat="50.13805" lon="3.70297">
        <ele>144.60000610352</ele>
        <time>2020-07-22T15:04:55.000Z</time>
      </trkpt>
      <trkpt lat="50.13801" lon="3.70304">
        <ele>144.19999694824</ele>
        <time>2020-07-22T15:04:57.000Z</time>
      </trkpt>
      <trkpt lat="50.13799" lon="3.70307">
        <ele>143.80000305176</ele>
        <time>2020-07-22T15:04:58.000Z</time>
      </trkpt>
      <trkpt lat="50.13797" lon="3.7031">
        <ele>143.39999389648</ele>
        <time>2020-07-22T15:04:59.000Z</time>
      </trkpt>
      <trkpt lat="50.13795" lon="3.70313">
        <ele>143</ele>
        <time>2020-07-22T15:05:00.000Z</time>
      </trkpt>
      <trkpt lat="50.13793" lon="3.70315">
        <ele>142.60000610352</ele>
        <time>2020-07-22T15:05:01.000Z</time>
      </trkpt>
      <trkpt lat="50.13783" lon="3.70323">
        <ele>142.60000610352</ele>
        <time>2020-07-22T15:05:05.000Z</time>
      </trkpt>
      <trkpt lat="50.1378" lon="3.70326">
        <ele>142.19999694824</ele>
        <time>2020-07-22T15:05:06.000Z</time>
      </trkpt>
      <trkpt lat="50.13777" lon="3.7033">
        <ele>141.80000305176</ele>
        <time>2020-07-22T15:05:07.000Z</time>
      </trkpt>
      <trkpt lat="50.13774" lon="3.70334">
        <ele>141.39999389648</ele>
        <time>2020-07-22T15:05:08.000Z</time>
      </trkpt>
      <trkpt lat="50.13771" lon="3.70338">
        <ele>141</ele>
        <time>2020-07-22T15:05:09.000Z</time>
      </trkpt>
      <trkpt lat="50.13768" lon="3.70343">
        <ele>140.60000610352</ele>
        <time>2020-07-22T15:05:10.000Z</time>
      </trkpt>
      <trkpt lat="50.13765" lon="3.70349">
        <ele>140.60000610352</ele>
        <time>2020-07-22T15:05:11.000Z</time>
      </trkpt>
      <trkpt lat="50.13759" lon="3.7036">
        <ele>140.60000610352</ele>
        <time>2020-07-22T15:05:13.000Z</time>
      </trkpt>
      <trkpt lat="50.1375" lon="3.70375">
        <ele>140.60000610352</ele>
        <time>2020-07-22T15:05:16.000Z</time>
      </trkpt>
      <trkpt lat="50.13733" lon="3.70418">
        <ele>140.60000610352</ele>
        <time>2020-07-22T15:05:24.000Z</time>
      </trkpt>
      <trkpt lat="50.13726" lon="3.7042">
        <ele>140.60000610352</ele>
        <time>2020-07-22T15:05:26.000Z</time>
      </trkpt>
      <trkpt lat="50.13723" lon="3.70416">
        <ele>140.60000610352</ele>
        <time>2020-07-22T15:05:27.000Z</time>
      </trkpt>
      <trkpt lat="50.13718" lon="3.70392">
        <ele>140.60000610352</ele>
        <time>2020-07-22T15:05:31.000Z</time>
      </trkpt>
      <trkpt lat="50.13706" lon="3.70351">
        <ele>140.60000610352</ele>
        <time>2020-07-22T15:05:37.000Z</time>
      </trkpt>
      <trkpt lat="50.1369" lon="3.70297">
        <ele>140.60000610352</ele>
        <time>2020-07-22T15:05:43.000Z</time>
      </trkpt>
      <trkpt lat="50.13685" lon="3.7028">
        <ele>140.60000610352</ele>
        <time>2020-07-22T15:05:45.000Z</time>
      </trkpt>
      <trkpt lat="50.13679" lon="3.70264">
        <ele>140.60000610352</ele>
        <time>2020-07-22T15:05:47.000Z</time>
      </trkpt>
      <trkpt lat="50.13672" lon="3.70235">
        <ele>141</ele>
        <time>2020-07-22T15:05:50.000Z</time>
      </trkpt>
      <trkpt lat="50.1367" lon="3.70223">
        <ele>141.39999389648</ele>
        <time>2020-07-22T15:05:51.000Z</time>
      </trkpt>
      <trkpt lat="50.13668" lon="3.70214">
        <ele>142</ele>
        <time>2020-07-22T15:05:52.000Z</time>
      </trkpt>
      <trkpt lat="50.13666" lon="3.70204">
        <ele>142.39999389648</ele>
        <time>2020-07-22T15:05:53.000Z</time>
      </trkpt>
      <trkpt lat="50.13664" lon="3.70195">
        <ele>142.80000305176</ele>
        <time>2020-07-22T15:05:54.000Z</time>
      </trkpt>
      <trkpt lat="50.13658" lon="3.70169">
        <ele>143.39999389648</ele>
        <time>2020-07-22T15:05:57.000Z</time>
      </trkpt>
      <trkpt lat="50.13656" lon="3.70161">
        <ele>143.80000305176</ele>
        <time>2020-07-22T15:05:58.000Z</time>
      </trkpt>
      <trkpt lat="50.13655" lon="3.70154">
        <ele>144.19999694824</ele>
        <time>2020-07-22T15:05:59.000Z</time>
      </trkpt>
      <trkpt lat="50.13654" lon="3.70147">
        <ele>144.80000305176</ele>
        <time>2020-07-22T15:06:00.000Z</time>
      </trkpt>
      <trkpt lat="50.13652" lon="3.70141">
        <ele>145.19999694824</ele>
        <time>2020-07-22T15:06:01.000Z</time>
      </trkpt>
      <trkpt lat="50.13644" lon="3.70114">
        <ele>145.19999694824</ele>
        <time>2020-07-22T15:06:06.000Z</time>
      </trkpt>
      <trkpt lat="50.13641" lon="3.70109">
        <ele>145.60000610352</ele>
        <time>2020-07-22T15:06:07.000Z</time>
      </trkpt>
      <trkpt lat="50.13639" lon="3.70104">
        <ele>146</ele>
        <time>2020-07-22T15:06:08.000Z</time>
      </trkpt>
      <trkpt lat="50.13636" lon="3.70099">
        <ele>146.39999389648</ele>
        <time>2020-07-22T15:06:09.000Z</time>
      </trkpt>
      <trkpt lat="50.13635" lon="3.70094">
        <ele>147</ele>
        <time>2020-07-22T15:06:10.000Z</time>
      </trkpt>
      <trkpt lat="50.13632" lon="3.70088">
        <ele>147.39999389648</ele>
        <time>2020-07-22T15:06:11.000Z</time>
      </trkpt>
      <trkpt lat="50.13627" lon="3.70078">
        <ele>147.39999389648</ele>
        <time>2020-07-22T15:06:13.000Z</time>
      </trkpt>
      <trkpt lat="50.13614" lon="3.70049">
        <ele>147.80000305176</ele>
        <time>2020-07-22T15:06:18.000Z</time>
      </trkpt>
      <trkpt lat="50.13611" lon="3.70044">
        <ele>148.19999694824</ele>
        <time>2020-07-22T15:06:19.000Z</time>
      </trkpt>
      <trkpt lat="50.13609" lon="3.7004">
        <ele>148.60000610352</ele>
        <time>2020-07-22T15:06:20.000Z</time>
      </trkpt>
      <trkpt lat="50.13607" lon="3.70035">
        <ele>149</ele>
        <time>2020-07-22T15:06:21.000Z</time>
      </trkpt>
      <trkpt lat="50.13605" lon="3.70031">
        <ele>149.39999389648</ele>
        <time>2020-07-22T15:06:22.000Z</time>
      </trkpt>
      <trkpt lat="50.13598" lon="3.70012">
        <ele>149.39999389648</ele>
        <time>2020-07-22T15:06:27.000Z</time>
      </trkpt>
      <trkpt lat="50.13591" lon="3.69986">
        <ele>149.39999389648</ele>
        <time>2020-07-22T15:06:34.000Z</time>
      </trkpt>
      <trkpt lat="50.1358" lon="3.69948">
        <ele>149.39999389648</ele>
        <time>2020-07-22T15:06:41.000Z</time>
      </trkpt>
      <trkpt lat="50.13568" lon="3.69911">
        <ele>149.39999389648</ele>
        <time>2020-07-22T15:06:47.000Z</time>
      </trkpt>
      <trkpt lat="50.13565" lon="3.69898">
        <ele>149.39999389648</ele>
        <time>2020-07-22T15:06:49.000Z</time>
      </trkpt>
      <trkpt lat="50.13556" lon="3.69859">
        <ele>149.39999389648</ele>
        <time>2020-07-22T15:06:56.000Z</time>
      </trkpt>
      <trkpt lat="50.13544" lon="3.69813">
        <ele>149.39999389648</ele>
        <time>2020-07-22T15:07:04.000Z</time>
      </trkpt>
      <trkpt lat="50.13531" lon="3.69763">
        <ele>149.39999389648</ele>
        <time>2020-07-22T15:07:10.000Z</time>
      </trkpt>
      <trkpt lat="50.13513" lon="3.69705">
        <ele>149.39999389648</ele>
        <time>2020-07-22T15:07:17.000Z</time>
      </trkpt>
      <trkpt lat="50.13488" lon="3.69643">
        <ele>149.39999389648</ele>
        <time>2020-07-22T15:07:25.000Z</time>
      </trkpt>
      <trkpt lat="50.13467" lon="3.69599">
        <ele>149.39999389648</ele>
        <time>2020-07-22T15:07:31.000Z</time>
      </trkpt>
      <trkpt lat="50.13434" lon="3.69525">
        <ele>149.39999389648</ele>
        <time>2020-07-22T15:07:40.000Z</time>
      </trkpt>
      <trkpt lat="50.13416" lon="3.69467">
        <ele>150</ele>
        <time>2020-07-22T15:07:46.000Z</time>
      </trkpt>
      <trkpt lat="50.13413" lon="3.69457">
        <ele>150.39999389648</ele>
        <time>2020-07-22T15:07:47.000Z</time>
      </trkpt>
      <trkpt lat="50.1341" lon="3.69448">
        <ele>150.80000305176</ele>
        <time>2020-07-22T15:07:48.000Z</time>
      </trkpt>
      <trkpt lat="50.13408" lon="3.6944">
        <ele>151.39999389648</ele>
        <time>2020-07-22T15:07:49.000Z</time>
      </trkpt>
      <trkpt lat="50.13405" lon="3.69433">
        <ele>151.80000305176</ele>
        <time>2020-07-22T15:07:50.000Z</time>
      </trkpt>
      <trkpt lat="50.13401" lon="3.69418">
        <ele>151.80000305176</ele>
        <time>2020-07-22T15:07:52.000Z</time>
      </trkpt>
      <trkpt lat="50.13387" lon="3.69376">
        <ele>151.80000305176</ele>
        <time>2020-07-22T15:07:58.000Z</time>
      </trkpt>
      <trkpt lat="50.13386" lon="3.69369">
        <ele>151.80000305176</ele>
        <time>2020-07-22T15:07:59.000Z</time>
      </trkpt>
      <trkpt lat="50.13369" lon="3.69318">
        <ele>151.80000305176</ele>
        <time>2020-07-22T15:08:05.000Z</time>
      </trkpt>
      <trkpt lat="50.13359" lon="3.69282">
        <ele>151.80000305176</ele>
        <time>2020-07-22T15:08:08.000Z</time>
      </trkpt>
      <trkpt lat="50.13353" lon="3.69256">
        <ele>151.80000305176</ele>
        <time>2020-07-22T15:08:10.000Z</time>
      </trkpt>
      <trkpt lat="50.13331" lon="3.69171">
        <ele>151.80000305176</ele>
        <time>2020-07-22T15:08:16.000Z</time>
      </trkpt>
      <trkpt lat="50.13327" lon="3.69156">
        <ele>151.39999389648</ele>
        <time>2020-07-22T15:08:17.000Z</time>
      </trkpt>
      <trkpt lat="50.13322" lon="3.69141">
        <ele>151</ele>
        <time>2020-07-22T15:08:18.000Z</time>
      </trkpt>
      <trkpt lat="50.13317" lon="3.69127">
        <ele>150.60000610352</ele>
        <time>2020-07-22T15:08:19.000Z</time>
      </trkpt>
      <trkpt lat="50.13313" lon="3.69113">
        <ele>150</ele>
        <time>2020-07-22T15:08:20.000Z</time>
      </trkpt>
      <trkpt lat="50.13308" lon="3.691">
        <ele>149.60000610352</ele>
        <time>2020-07-22T15:08:21.000Z</time>
      </trkpt>
      <trkpt lat="50.13303" lon="3.69088">
        <ele>149.60000610352</ele>
        <time>2020-07-22T15:08:22.000Z</time>
      </trkpt>
      <trkpt lat="50.13279" lon="3.69048">
        <ele>149.60000610352</ele>
        <time>2020-07-22T15:08:26.000Z</time>
      </trkpt>
      <trkpt lat="50.13252" lon="3.69009">
        <ele>149.60000610352</ele>
        <time>2020-07-22T15:08:31.000Z</time>
      </trkpt>
      <trkpt lat="50.13222" lon="3.68965">
        <ele>149.19999694824</ele>
        <time>2020-07-22T15:08:36.000Z</time>
      </trkpt>
      <trkpt lat="50.13216" lon="3.68957">
        <ele>148.80000305176</ele>
        <time>2020-07-22T15:08:37.000Z</time>
      </trkpt>
      <trkpt lat="50.13208" lon="3.68946">
        <ele>148.39999389648</ele>
        <time>2020-07-22T15:08:38.000Z</time>
      </trkpt>
      <trkpt lat="50.13201" lon="3.68936">
        <ele>148</ele>
        <time>2020-07-22T15:08:39.000Z</time>
      </trkpt>
      <trkpt lat="50.13194" lon="3.68925">
        <ele>147.60000610352</ele>
        <time>2020-07-22T15:08:40.000Z</time>
      </trkpt>
      <trkpt lat="50.13178" lon="3.68904">
        <ele>147.60000610352</ele>
        <time>2020-07-22T15:08:42.000Z</time>
      </trkpt>
      <trkpt lat="50.13146" lon="3.68859">
        <ele>147.19999694824</ele>
        <time>2020-07-22T15:08:46.000Z</time>
      </trkpt>
      <trkpt lat="50.13138" lon="3.68847">
        <ele>146.80000305176</ele>
        <time>2020-07-22T15:08:47.000Z</time>
      </trkpt>
      <trkpt lat="50.1313" lon="3.68836">
        <ele>146.39999389648</ele>
        <time>2020-07-22T15:08:48.000Z</time>
      </trkpt>
      <trkpt lat="50.13123" lon="3.68826">
        <ele>145.80000305176</ele>
        <time>2020-07-22T15:08:49.000Z</time>
      </trkpt>
      <trkpt lat="50.13115" lon="3.68813">
        <ele>145.39999389648</ele>
        <time>2020-07-22T15:08:50.000Z</time>
      </trkpt>
      <trkpt lat="50.13101" lon="3.68789">
        <ele>145</ele>
        <time>2020-07-22T15:08:52.000Z</time>
      </trkpt>
      <trkpt lat="50.13095" lon="3.68777">
        <ele>144.39999389648</ele>
        <time>2020-07-22T15:08:53.000Z</time>
      </trkpt>
      <trkpt lat="50.13088" lon="3.68765">
        <ele>144</ele>
        <time>2020-07-22T15:08:54.000Z</time>
      </trkpt>
      <trkpt lat="50.13083" lon="3.68754">
        <ele>143.39999389648</ele>
        <time>2020-07-22T15:08:55.000Z</time>
      </trkpt>
      <trkpt lat="50.13077" lon="3.6874">
        <ele>143</ele>
        <time>2020-07-22T15:08:56.000Z</time>
      </trkpt>
      <trkpt lat="50.13049" lon="3.68677">
        <ele>142.60000610352</ele>
        <time>2020-07-22T15:09:01.000Z</time>
      </trkpt>
      <trkpt lat="50.13044" lon="3.68666">
        <ele>142</ele>
        <time>2020-07-22T15:09:02.000Z</time>
      </trkpt>
      <trkpt lat="50.13039" lon="3.68654">
        <ele>141.60000610352</ele>
        <time>2020-07-22T15:09:03.000Z</time>
      </trkpt>
      <trkpt lat="50.13034" lon="3.68643">
        <ele>141.19999694824</ele>
        <time>2020-07-22T15:09:04.000Z</time>
      </trkpt>
      <trkpt lat="50.13029" lon="3.68631">
        <ele>140.80000305176</ele>
        <time>2020-07-22T15:09:05.000Z</time>
      </trkpt>
      <trkpt lat="50.13018" lon="3.68611">
        <ele>140.80000305176</ele>
        <time>2020-07-22T15:09:07.000Z</time>
      </trkpt>
      <trkpt lat="50.1299" lon="3.68553">
        <ele>140.80000305176</ele>
        <time>2020-07-22T15:09:13.000Z</time>
      </trkpt>
      <trkpt lat="50.12971" lon="3.68517">
        <ele>140.39999389648</ele>
        <time>2020-07-22T15:09:18.000Z</time>
      </trkpt>
      <trkpt lat="50.12969" lon="3.68512">
        <ele>140</ele>
        <time>2020-07-22T15:09:19.000Z</time>
      </trkpt>
      <trkpt lat="50.12967" lon="3.68508">
        <ele>139.60000610352</ele>
        <time>2020-07-22T15:09:20.000Z</time>
      </trkpt>
      <trkpt lat="50.12965" lon="3.68504">
        <ele>139.19999694824</ele>
        <time>2020-07-22T15:09:21.000Z</time>
      </trkpt>
      <trkpt lat="50.12963" lon="3.68501">
        <ele>138.80000305176</ele>
        <time>2020-07-22T15:09:22.000Z</time>
      </trkpt>
      <trkpt lat="50.12952" lon="3.68472">
        <ele>138.80000305176</ele>
        <time>2020-07-22T15:09:29.000Z</time>
      </trkpt>
      <trkpt lat="50.12943" lon="3.68449">
        <ele>138.80000305176</ele>
        <time>2020-07-22T15:09:36.000Z</time>
      </trkpt>
      <trkpt lat="50.12935" lon="3.68428">
        <ele>138.80000305176</ele>
        <time>2020-07-22T15:09:44.000Z</time>
      </trkpt>
      <trkpt lat="50.12928" lon="3.68406">
        <ele>138.80000305176</ele>
        <time>2020-07-22T15:09:50.000Z</time>
      </trkpt>
      <trkpt lat="50.12918" lon="3.68372">
        <ele>138.80000305176</ele>
        <time>2020-07-22T15:09:56.000Z</time>
      </trkpt>
      <trkpt lat="50.12915" lon="3.6836">
        <ele>138.80000305176</ele>
        <time>2020-07-22T15:09:58.000Z</time>
      </trkpt>
      <trkpt lat="50.12907" lon="3.68335">
        <ele>138.80000305176</ele>
        <time>2020-07-22T15:10:02.000Z</time>
      </trkpt>
      <trkpt lat="50.12893" lon="3.68281">
        <ele>138.80000305176</ele>
        <time>2020-07-22T15:10:09.000Z</time>
      </trkpt>
      <trkpt lat="50.1288" lon="3.68228">
        <ele>138.80000305176</ele>
        <time>2020-07-22T15:10:16.000Z</time>
      </trkpt>
      <trkpt lat="50.12877" lon="3.68213">
        <ele>138.80000305176</ele>
        <time>2020-07-22T15:10:18.000Z</time>
      </trkpt>
      <trkpt lat="50.12867" lon="3.68179">
        <ele>138.80000305176</ele>
        <time>2020-07-22T15:10:23.000Z</time>
      </trkpt>
      <trkpt lat="50.12852" lon="3.68138">
        <ele>138.80000305176</ele>
        <time>2020-07-22T15:10:28.000Z</time>
      </trkpt>
      <trkpt lat="50.12826" lon="3.68081">
        <ele>138.80000305176</ele>
        <time>2020-07-22T15:10:35.000Z</time>
      </trkpt>
      <trkpt lat="50.12831" lon="3.68051">
        <ele>138.80000305176</ele>
        <time>2020-07-22T15:10:39.000Z</time>
      </trkpt>
      <trkpt lat="50.1285" lon="3.68036">
        <ele>138.80000305176</ele>
        <time>2020-07-22T15:10:43.000Z</time>
      </trkpt>
      <trkpt lat="50.1286" lon="3.68032">
        <ele>138.80000305176</ele>
        <time>2020-07-22T15:10:45.000Z</time>
      </trkpt>
      <trkpt lat="50.12876" lon="3.68022">
        <ele>138.80000305176</ele>
        <time>2020-07-22T15:10:49.000Z</time>
      </trkpt>
      <trkpt lat="50.12891" lon="3.68015">
        <ele>139.19999694824</ele>
        <time>2020-07-22T15:10:54.000Z</time>
      </trkpt>
      <trkpt lat="50.12893" lon="3.68016">
        <ele>139.60000610352</ele>
        <time>2020-07-22T15:10:55.000Z</time>
      </trkpt>
      <trkpt lat="50.12896" lon="3.68018">
        <ele>140</ele>
        <time>2020-07-22T15:10:56.000Z</time>
      </trkpt>
      <trkpt lat="50.12897" lon="3.6802">
        <ele>140.60000610352</ele>
        <time>2020-07-22T15:10:57.000Z</time>
      </trkpt>
      <trkpt lat="50.12899" lon="3.68022">
        <ele>141</ele>
        <time>2020-07-22T15:10:58.000Z</time>
      </trkpt>
      <trkpt lat="50.129" lon="3.68035">
        <ele>141</ele>
        <time>2020-07-22T15:11:01.000Z</time>
      </trkpt>
      <trkpt lat="50.129" lon="3.68047">
        <ele>141</ele>
        <time>2020-07-22T15:11:03.000Z</time>
      </trkpt>
      <trkpt lat="50.12901" lon="3.68053">
        <ele>141</ele>
        <time>2020-07-22T15:11:04.000Z</time>
      </trkpt>
      <trkpt lat="50.12904" lon="3.68092">
        <ele>141.39999389648</ele>
        <time>2020-07-22T15:11:10.000Z</time>
      </trkpt>
      <trkpt lat="50.12905" lon="3.68098">
        <ele>141.80000305176</ele>
        <time>2020-07-22T15:11:11.000Z</time>
      </trkpt>
      <trkpt lat="50.12906" lon="3.68105">
        <ele>142.19999694824</ele>
        <time>2020-07-22T15:11:12.000Z</time>
      </trkpt>
      <trkpt lat="50.12908" lon="3.68112">
        <ele>142.60000610352</ele>
        <time>2020-07-22T15:11:13.000Z</time>
      </trkpt>
      <trkpt lat="50.12909" lon="3.68118">
        <ele>143</ele>
        <time>2020-07-22T15:11:14.000Z</time>
      </trkpt>
      <trkpt lat="50.12911" lon="3.68124">
        <ele>143</ele>
        <time>2020-07-22T15:11:15.000Z</time>
      </trkpt>
      <trkpt lat="50.12915" lon="3.68139">
        <ele>143</ele>
        <time>2020-07-22T15:11:17.000Z</time>
      </trkpt>
      <trkpt lat="50.12935" lon="3.68193">
        <ele>143</ele>
        <time>2020-07-22T15:11:25.000Z</time>
      </trkpt>
      <trkpt lat="50.12952" lon="3.68243">
        <ele>143</ele>
        <time>2020-07-22T15:11:34.000Z</time>
      </trkpt>
      <trkpt lat="50.12963" lon="3.68273">
        <ele>143</ele>
        <time>2020-07-22T15:11:40.000Z</time>
      </trkpt>
      <trkpt lat="50.12963" lon="3.68297">
        <ele>143</ele>
        <time>2020-07-22T15:11:44.000Z</time>
      </trkpt>
      <trkpt lat="50.12949" lon="3.68309">
        <ele>143</ele>
        <time>2020-07-22T15:11:47.000Z</time>
      </trkpt>
      <trkpt lat="50.12942" lon="3.68311">
        <ele>143</ele>
        <time>2020-07-22T15:11:48.000Z</time>
      </trkpt>
      <trkpt lat="50.12918" lon="3.68322">
        <ele>143</ele>
        <time>2020-07-22T15:11:52.000Z</time>
      </trkpt>
      <trkpt lat="50.12912" lon="3.68325">
        <ele>143</ele>
        <time>2020-07-22T15:11:53.000Z</time>
      </trkpt>
      <trkpt lat="50.12907" lon="3.68329">
        <ele>143.39999389648</ele>
        <time>2020-07-22T15:11:54.000Z</time>
      </trkpt>
      <trkpt lat="50.12902" lon="3.68333">
        <ele>143.80000305176</ele>
        <time>2020-07-22T15:11:55.000Z</time>
      </trkpt>
      <trkpt lat="50.12897" lon="3.68336">
        <ele>144.19999694824</ele>
        <time>2020-07-22T15:11:56.000Z</time>
      </trkpt>
      <trkpt lat="50.12893" lon="3.68341">
        <ele>144.60000610352</ele>
        <time>2020-07-22T15:11:57.000Z</time>
      </trkpt>
      <trkpt lat="50.12888" lon="3.68346">
        <ele>145.19999694824</ele>
        <time>2020-07-22T15:11:58.000Z</time>
      </trkpt>
      <trkpt lat="50.12884" lon="3.68351">
        <ele>145.19999694824</ele>
        <time>2020-07-22T15:11:59.000Z</time>
      </trkpt>
      <trkpt lat="50.12875" lon="3.68362">
        <ele>145.19999694824</ele>
        <time>2020-07-22T15:12:01.000Z</time>
      </trkpt>
      <trkpt lat="50.12862" lon="3.68383">
        <ele>145.19999694824</ele>
        <time>2020-07-22T15:12:04.000Z</time>
      </trkpt>
      <trkpt lat="50.12842" lon="3.68432">
        <ele>145.19999694824</ele>
        <time>2020-07-22T15:12:09.000Z</time>
      </trkpt>
      <trkpt lat="50.12839" lon="3.68443">
        <ele>144.60000610352</ele>
        <time>2020-07-22T15:12:10.000Z</time>
      </trkpt>
      <trkpt lat="50.12836" lon="3.68454">
        <ele>144.19999694824</ele>
        <time>2020-07-22T15:12:11.000Z</time>
      </trkpt>
      <trkpt lat="50.12834" lon="3.68465">
        <ele>143.80000305176</ele>
        <time>2020-07-22T15:12:12.000Z</time>
      </trkpt>
      <trkpt lat="50.12832" lon="3.68476">
        <ele>143.39999389648</ele>
        <time>2020-07-22T15:12:13.000Z</time>
      </trkpt>
      <trkpt lat="50.12829" lon="3.68487">
        <ele>142.80000305176</ele>
        <time>2020-07-22T15:12:14.000Z</time>
      </trkpt>
      <trkpt lat="50.12827" lon="3.68498">
        <ele>142.39999389648</ele>
        <time>2020-07-22T15:12:15.000Z</time>
      </trkpt>
      <trkpt lat="50.12825" lon="3.68509">
        <ele>141.80000305176</ele>
        <time>2020-07-22T15:12:16.000Z</time>
      </trkpt>
      <trkpt lat="50.12822" lon="3.6852">
        <ele>141.19999694824</ele>
        <time>2020-07-22T15:12:17.000Z</time>
      </trkpt>
      <trkpt lat="50.1282" lon="3.6853">
        <ele>140.80000305176</ele>
        <time>2020-07-22T15:12:18.000Z</time>
      </trkpt>
      <trkpt lat="50.12816" lon="3.68551">
        <ele>140.39999389648</ele>
        <time>2020-07-22T15:12:20.000Z</time>
      </trkpt>
      <trkpt lat="50.12814" lon="3.68562">
        <ele>139.80000305176</ele>
        <time>2020-07-22T15:12:21.000Z</time>
      </trkpt>
      <trkpt lat="50.12811" lon="3.68573">
        <ele>139.39999389648</ele>
        <time>2020-07-22T15:12:22.000Z</time>
      </trkpt>
      <trkpt lat="50.12808" lon="3.68583">
        <ele>139</ele>
        <time>2020-07-22T15:12:23.000Z</time>
      </trkpt>
      <trkpt lat="50.12805" lon="3.68592">
        <ele>138.60000610352</ele>
        <time>2020-07-22T15:12:24.000Z</time>
      </trkpt>
      <trkpt lat="50.12801" lon="3.686">
        <ele>138.60000610352</ele>
        <time>2020-07-22T15:12:25.000Z</time>
      </trkpt>
      <trkpt lat="50.12798" lon="3.68607">
        <ele>138.19999694824</ele>
        <time>2020-07-22T15:12:26.000Z</time>
      </trkpt>
      <trkpt lat="50.12794" lon="3.68613">
        <ele>137.60000610352</ele>
        <time>2020-07-22T15:12:27.000Z</time>
      </trkpt>
      <trkpt lat="50.12791" lon="3.68615">
        <ele>137.19999694824</ele>
        <time>2020-07-22T15:12:28.000Z</time>
      </trkpt>
      <trkpt lat="50.12788" lon="3.68612">
        <ele>136.80000305176</ele>
        <time>2020-07-22T15:12:29.000Z</time>
      </trkpt>
      <trkpt lat="50.12786" lon="3.68607">
        <ele>136.39999389648</ele>
        <time>2020-07-22T15:12:30.000Z</time>
      </trkpt>
      <trkpt lat="50.12783" lon="3.68602">
        <ele>136.39999389648</ele>
        <time>2020-07-22T15:12:31.000Z</time>
      </trkpt>
      <trkpt lat="50.12777" lon="3.68592">
        <ele>136.39999389648</ele>
        <time>2020-07-22T15:12:33.000Z</time>
      </trkpt>
      <trkpt lat="50.12766" lon="3.68567">
        <ele>136.39999389648</ele>
        <time>2020-07-22T15:12:38.000Z</time>
      </trkpt>
      <trkpt lat="50.1276" lon="3.68556">
        <ele>136.39999389648</ele>
        <time>2020-07-22T15:12:40.000Z</time>
      </trkpt>
      <trkpt lat="50.12751" lon="3.68538">
        <ele>136.39999389648</ele>
        <time>2020-07-22T15:12:43.000Z</time>
      </trkpt>
      <trkpt lat="50.1274" lon="3.68515">
        <ele>136.39999389648</ele>
        <time>2020-07-22T15:12:46.000Z</time>
      </trkpt>
      <trkpt lat="50.12741" lon="3.68507">
        <ele>136.39999389648</ele>
        <time>2020-07-22T15:12:47.000Z</time>
      </trkpt>
      <trkpt lat="50.12743" lon="3.68499">
        <ele>136</ele>
        <time>2020-07-22T15:12:48.000Z</time>
      </trkpt>
      <trkpt lat="50.12746" lon="3.68492">
        <ele>135.39999389648</ele>
        <time>2020-07-22T15:12:49.000Z</time>
      </trkpt>
      <trkpt lat="50.12751" lon="3.68487">
        <ele>135</ele>
        <time>2020-07-22T15:12:50.000Z</time>
      </trkpt>
      <trkpt lat="50.12756" lon="3.68482">
        <ele>134.60000610352</ele>
        <time>2020-07-22T15:12:51.000Z</time>
      </trkpt>
      <trkpt lat="50.1276" lon="3.68478">
        <ele>134.19999694824</ele>
        <time>2020-07-22T15:12:52.000Z</time>
      </trkpt>
      <trkpt lat="50.12764" lon="3.68475">
        <ele>134.19999694824</ele>
        <time>2020-07-22T15:12:53.000Z</time>
      </trkpt>
      <trkpt lat="50.12772" lon="3.6847">
        <ele>134.19999694824</ele>
        <time>2020-07-22T15:12:55.000Z</time>
      </trkpt>
      <trkpt lat="50.12798" lon="3.68448">
        <ele>134.19999694824</ele>
        <time>2020-07-22T15:13:02.000Z</time>
      </trkpt>
      <trkpt lat="50.12804" lon="3.6844">
        <ele>134.60000610352</ele>
        <time>2020-07-22T15:13:04.000Z</time>
      </trkpt>
      <trkpt lat="50.12804" lon="3.68435">
        <ele>135.19999694824</ele>
        <time>2020-07-22T15:13:05.000Z</time>
      </trkpt>
      <trkpt lat="50.12803" lon="3.68429">
        <ele>135.60000610352</ele>
        <time>2020-07-22T15:13:06.000Z</time>
      </trkpt>
      <trkpt lat="50.12801" lon="3.68425">
        <ele>136.19999694824</ele>
        <time>2020-07-22T15:13:07.000Z</time>
      </trkpt>
      <trkpt lat="50.12799" lon="3.68421">
        <ele>136.60000610352</ele>
        <time>2020-07-22T15:13:08.000Z</time>
      </trkpt>
      <trkpt lat="50.12797" lon="3.68417">
        <ele>136.60000610352</ele>
        <time>2020-07-22T15:13:09.000Z</time>
      </trkpt>
      <trkpt lat="50.12785" lon="3.68387">
        <ele>136.60000610352</ele>
        <time>2020-07-22T15:13:14.000Z</time>
      </trkpt>
      <trkpt lat="50.12775" lon="3.68351">
        <ele>136.60000610352</ele>
        <time>2020-07-22T15:13:19.000Z</time>
      </trkpt>
      <trkpt lat="50.12756" lon="3.68297">
        <ele>136.60000610352</ele>
        <time>2020-07-22T15:13:27.000Z</time>
      </trkpt>
      <trkpt lat="50.12742" lon="3.68251">
        <ele>136.60000610352</ele>
        <time>2020-07-22T15:13:34.000Z</time>
      </trkpt>
      <trkpt lat="50.12724" lon="3.68198">
        <ele>136.60000610352</ele>
        <time>2020-07-22T15:13:42.000Z</time>
      </trkpt>
      <trkpt lat="50.12706" lon="3.68165">
        <ele>136.60000610352</ele>
        <time>2020-07-22T15:13:47.000Z</time>
      </trkpt>
      <trkpt lat="50.12687" lon="3.68125">
        <ele>136.19999694824</ele>
        <time>2020-07-22T15:13:53.000Z</time>
      </trkpt>
      <trkpt lat="50.12683" lon="3.68118">
        <ele>135.80000305176</ele>
        <time>2020-07-22T15:13:54.000Z</time>
      </trkpt>
      <trkpt lat="50.1268" lon="3.68112">
        <ele>135.39999389648</ele>
        <time>2020-07-22T15:13:55.000Z</time>
      </trkpt>
      <trkpt lat="50.12677" lon="3.68104">
        <ele>135</ele>
        <time>2020-07-22T15:13:56.000Z</time>
      </trkpt>
      <trkpt lat="50.12673" lon="3.68097">
        <ele>134.60000610352</ele>
        <time>2020-07-22T15:13:57.000Z</time>
      </trkpt>
      <trkpt lat="50.12667" lon="3.68081">
        <ele>134.60000610352</ele>
        <time>2020-07-22T15:13:59.000Z</time>
      </trkpt>
      <trkpt lat="50.12664" lon="3.68072">
        <ele>134.60000610352</ele>
        <time>2020-07-22T15:14:00.000Z</time>
      </trkpt>
      <trkpt lat="50.12644" lon="3.68027">
        <ele>134.60000610352</ele>
        <time>2020-07-22T15:14:05.000Z</time>
      </trkpt>
      <trkpt lat="50.12608" lon="3.67958">
        <ele>134.60000610352</ele>
        <time>2020-07-22T15:14:12.000Z</time>
      </trkpt>
      <trkpt lat="50.12589" lon="3.6792">
        <ele>134.60000610352</ele>
        <time>2020-07-22T15:14:16.000Z</time>
      </trkpt>
      <trkpt lat="50.12576" lon="3.67903">
        <ele>134.60000610352</ele>
        <time>2020-07-22T15:14:18.000Z</time>
      </trkpt>
      <trkpt lat="50.12562" lon="3.6789">
        <ele>134.60000610352</ele>
        <time>2020-07-22T15:14:20.000Z</time>
      </trkpt>
      <trkpt lat="50.12556" lon="3.67886">
        <ele>134.60000610352</ele>
        <time>2020-07-22T15:14:21.000Z</time>
      </trkpt>
      <trkpt lat="50.12549" lon="3.67882">
        <ele>134.60000610352</ele>
        <time>2020-07-22T15:14:22.000Z</time>
      </trkpt>
      <trkpt lat="50.12539" lon="3.67874">
        <ele>134.60000610352</ele>
        <time>2020-07-22T15:14:24.000Z</time>
      </trkpt>
      <trkpt lat="50.12526" lon="3.67861">
        <ele>134.60000610352</ele>
        <time>2020-07-22T15:14:27.000Z</time>
      </trkpt>
      <trkpt lat="50.12512" lon="3.67841">
        <ele>134.60000610352</ele>
        <time>2020-07-22T15:14:32.000Z</time>
      </trkpt>
      <trkpt lat="50.12498" lon="3.67825">
        <ele>134.60000610352</ele>
        <time>2020-07-22T15:14:37.000Z</time>
      </trkpt>
      <trkpt lat="50.12488" lon="3.67813">
        <ele>134.60000610352</ele>
        <time>2020-07-22T15:14:42.000Z</time>
      </trkpt>
      <trkpt lat="50.12485" lon="3.6781">
        <ele>134.60000610352</ele>
        <time>2020-07-22T15:14:45.000Z</time>
      </trkpt>
    </trkseg>
  </trk>
</gpx>